<?xml version="1.0" encoding="UTF-8" standalone="no" ?>
<gpx xmlns="http://www.topografix.com/GPX/1/1" xmlns:xsi="http://www.w3.org/2001/XMLSchema-instance" xsi:schemaLocation="http://www.topografix.com/GPX/1/1 http://www.topografix.com/GPX/1/1/gpx.xsd" version="1.1" creator="VisuGPX - https://www.visugpx.com">
  <metadata>
    <name>Sortie gravel</name>
  </metadata>
  <trk>
    <name><![CDATA[Sortie gravel]]></name>
    <trkseg>
      <trkpt lat="46.57673" lon="5.74713">
        <ele>532.586202</ele>
        <time>2022-03-14T15:59:39.308Z</time>
      </trkpt>
      <trkpt lat="46.57652" lon="5.74711">
        <ele>532.59192</ele>
        <time>2022-03-14T15:59:43.285Z</time>
      </trkpt>
      <trkpt lat="46.57637" lon="5.7471">
        <ele>532.593969</ele>
        <time>2022-03-14T15:59:45.791Z</time>
      </trkpt>
      <trkpt lat="46.57504" lon="5.74738">
        <ele>531.053737</ele>
        <time>2022-03-14T16:00:06.583Z</time>
      </trkpt>
      <trkpt lat="46.57485" lon="5.74742">
        <ele>530.8283</ele>
        <time>2022-03-14T16:00:09.527Z</time>
      </trkpt>
      <trkpt lat="46.57478" lon="5.74743">
        <ele>530.746016</ele>
        <time>2022-03-14T16:00:10.616Z</time>
      </trkpt>
      <trkpt lat="46.57469" lon="5.74744">
        <ele>530.646224</ele>
        <time>2022-03-14T16:00:11.952Z</time>
      </trkpt>
      <trkpt lat="46.5744" lon="5.74736">
        <ele>530.488811</ele>
        <time>2022-03-14T16:00:16.501Z</time>
      </trkpt>
      <trkpt lat="46.57433" lon="5.74732">
        <ele>530.472353</ele>
        <time>2022-03-14T16:00:17.693Z</time>
      </trkpt>
      <trkpt lat="46.57426" lon="5.74728">
        <ele>530.455628</ele>
        <time>2022-03-14T16:00:18.767Z</time>
      </trkpt>
      <trkpt lat="46.57425" lon="5.74726">
        <ele>530.451317</ele>
        <time>2022-03-14T16:00:19.078Z</time>
      </trkpt>
      <trkpt lat="46.57423" lon="5.74725">
        <ele>530.446918</ele>
        <time>2022-03-14T16:00:19.405Z</time>
      </trkpt>
      <trkpt lat="46.57421" lon="5.74724">
        <ele>530.44258</ele>
        <time>2022-03-14T16:00:19.706Z</time>
      </trkpt>
      <trkpt lat="46.57419" lon="5.74723">
        <ele>530.437729</ele>
        <time>2022-03-14T16:00:20.065Z</time>
      </trkpt>
      <trkpt lat="46.57417" lon="5.74723">
        <ele>530.432541</ele>
        <time>2022-03-14T16:00:20.438Z</time>
      </trkpt>
      <trkpt lat="46.57409" lon="5.74721">
        <ele>530.414091</ele>
        <time>2022-03-14T16:00:21.785Z</time>
      </trkpt>
      <trkpt lat="46.57402" lon="5.7472">
        <ele>530.399597</ele>
        <time>2022-03-14T16:00:22.855Z</time>
      </trkpt>
      <trkpt lat="46.57393" lon="5.74717">
        <ele>530.378185</ele>
        <time>2022-03-14T16:00:24.309Z</time>
      </trkpt>
      <trkpt lat="46.57385" lon="5.74707">
        <ele>530.353491</ele>
        <time>2022-03-14T16:00:26.094Z</time>
      </trkpt>
      <trkpt lat="46.57381" lon="5.74703">
        <ele>530.342835</ele>
        <time>2022-03-14T16:00:26.961Z</time>
      </trkpt>
      <trkpt lat="46.57379" lon="5.74707">
        <ele>530.335042</ele>
        <time>2022-03-14T16:00:27.559Z</time>
      </trkpt>
      <trkpt lat="46.57378" lon="5.74709">
        <ele>530.331725</ele>
        <time>2022-03-14T16:00:27.839Z</time>
      </trkpt>
      <trkpt lat="46.57371" lon="5.74736">
        <ele>530.287283</ele>
        <time>2022-03-14T16:00:31.433Z</time>
      </trkpt>
      <trkpt lat="46.57373" lon="5.74745">
        <ele>530.272627</ele>
        <time>2022-03-14T16:00:32.686Z</time>
      </trkpt>
      <trkpt lat="46.57376" lon="5.74756">
        <ele>530.254082</ele>
        <time>2022-03-14T16:00:34.563Z</time>
      </trkpt>
      <trkpt lat="46.57381" lon="5.7478">
        <ele>530.216136</ele>
        <time>2022-03-14T16:00:37.818Z</time>
      </trkpt>
      <trkpt lat="46.57382" lon="5.74787">
        <ele>530.204235</ele>
        <time>2022-03-14T16:00:38.987Z</time>
      </trkpt>
      <trkpt lat="46.57383" lon="5.74797">
        <ele>530.188675</ele>
        <time>2022-03-14T16:00:40.519Z</time>
      </trkpt>
      <trkpt lat="46.57385" lon="5.74813">
        <ele>530.163918</ele>
        <time>2022-03-14T16:00:43.190Z</time>
      </trkpt>
      <trkpt lat="46.57386" lon="5.74822">
        <ele>530.149312</ele>
        <time>2022-03-14T16:00:45.262Z</time>
      </trkpt>
      <trkpt lat="46.57394" lon="5.74887">
        <ele>531.222154</ele>
        <time>2022-03-14T16:00:56.103Z</time>
      </trkpt>
      <trkpt lat="46.57399" lon="5.74927">
        <ele>532.077344</ele>
        <time>2022-03-14T16:01:04.502Z</time>
      </trkpt>
      <trkpt lat="46.57402" lon="5.74952">
        <ele>532.621692</ele>
        <time>2022-03-14T16:01:09.661Z</time>
      </trkpt>
      <trkpt lat="46.57404" lon="5.74966">
        <ele>532.909209</ele>
        <time>2022-03-14T16:01:13.199Z</time>
      </trkpt>
      <trkpt lat="46.57409" lon="5.75016">
        <ele>533.979856</ele>
        <time>2022-03-14T16:01:24.601Z</time>
      </trkpt>
      <trkpt lat="46.57407" lon="5.75055">
        <ele>534.80908</ele>
        <time>2022-03-14T16:01:33.212Z</time>
      </trkpt>
      <trkpt lat="46.57403" lon="5.75091">
        <ele>535.566089</ele>
        <time>2022-03-14T16:01:42.773Z</time>
      </trkpt>
      <trkpt lat="46.57422" lon="5.75082">
        <ele>536.262904</ele>
        <time>2022-03-14T16:01:50.162Z</time>
      </trkpt>
      <trkpt lat="46.57488" lon="5.75047">
        <ele>538.712987</ele>
        <time>2022-03-14T16:02:12.773Z</time>
      </trkpt>
      <trkpt lat="46.57491" lon="5.75048">
        <ele>538.818315</ele>
        <time>2022-03-14T16:02:14.814Z</time>
      </trkpt>
      <trkpt lat="46.57507" lon="5.75058">
        <ele>539.445009</ele>
        <time>2022-03-14T16:02:20.093Z</time>
      </trkpt>
      <trkpt lat="46.57519" lon="5.7507">
        <ele>539.947485</ele>
        <time>2022-03-14T16:02:23.977Z</time>
      </trkpt>
      <trkpt lat="46.57521" lon="5.75074">
        <ele>540.063255</ele>
        <time>2022-03-14T16:02:26.164Z</time>
      </trkpt>
      <trkpt lat="46.57513" lon="5.75083">
        <ele>540.408081</ele>
        <time>2022-03-14T16:02:29.198Z</time>
      </trkpt>
      <trkpt lat="46.5738" lon="5.75247">
        <ele>545.063559</ele>
        <time>2022-03-14T16:03:16.744Z</time>
      </trkpt>
      <trkpt lat="46.57376" lon="5.75252">
        <ele>545.185421</ele>
        <time>2022-03-14T16:03:18.145Z</time>
      </trkpt>
      <trkpt lat="46.57321" lon="5.75315">
        <ele>546.877344</ele>
        <time>2022-03-14T16:03:36.952Z</time>
      </trkpt>
      <trkpt lat="46.57313" lon="5.75324">
        <ele>547.124623</ele>
        <time>2022-03-14T16:03:38.955Z</time>
      </trkpt>
      <trkpt lat="46.57315" lon="5.75328">
        <ele>547.196192</ele>
        <time>2022-03-14T16:03:40.620Z</time>
      </trkpt>
      <trkpt lat="46.57325" lon="5.75361">
        <ele>547.814801</ele>
        <time>2022-03-14T16:03:46.958Z</time>
      </trkpt>
      <trkpt lat="46.57326" lon="5.75382">
        <ele>548.159501</ele>
        <time>2022-03-14T16:03:50.828Z</time>
      </trkpt>
      <trkpt lat="46.57312" lon="5.75445">
        <ele>549.297337</ele>
        <time>2022-03-14T16:04:02.547Z</time>
      </trkpt>
      <trkpt lat="46.57312" lon="5.7545">
        <ele>549.375542</ele>
        <time>2022-03-14T16:04:04.103Z</time>
      </trkpt>
      <trkpt lat="46.57312" lon="5.75474">
        <ele>549.785267</ele>
        <time>2022-03-14T16:04:07.547Z</time>
      </trkpt>
      <trkpt lat="46.57322" lon="5.75524">
        <ele>550.663812</ele>
        <time>2022-03-14T16:04:18.213Z</time>
      </trkpt>
      <trkpt lat="46.57328" lon="5.75548">
        <ele>551.290311</ele>
        <time>2022-03-14T16:04:24.890Z</time>
      </trkpt>
      <trkpt lat="46.5733" lon="5.75564">
        <ele>551.701054</ele>
        <time>2022-03-14T16:04:28.527Z</time>
      </trkpt>
      <trkpt lat="46.57332" lon="5.75578">
        <ele>552.034271</ele>
        <time>2022-03-14T16:04:31.396Z</time>
      </trkpt>
      <trkpt lat="46.5733" lon="5.75629">
        <ele>553.302757</ele>
        <time>2022-03-14T16:04:42.656Z</time>
      </trkpt>
      <trkpt lat="46.57326" lon="5.75666">
        <ele>554.240417</ele>
        <time>2022-03-14T16:04:51.111Z</time>
      </trkpt>
      <trkpt lat="46.57325" lon="5.75681">
        <ele>554.599142</ele>
        <time>2022-03-14T16:04:54.234Z</time>
      </trkpt>
      <trkpt lat="46.57325" lon="5.75697">
        <ele>555.001423</ele>
        <time>2022-03-14T16:04:57.805Z</time>
      </trkpt>
      <trkpt lat="46.57326" lon="5.75709">
        <ele>555.291968</ele>
        <time>2022-03-14T16:04:59.923Z</time>
      </trkpt>
      <trkpt lat="46.57329" lon="5.75734">
        <ele>555.912942</ele>
        <time>2022-03-14T16:05:05.841Z</time>
      </trkpt>
      <trkpt lat="46.57332" lon="5.75744">
        <ele>556.190691</ele>
        <time>2022-03-14T16:05:08.881Z</time>
      </trkpt>
      <trkpt lat="46.57351" lon="5.75795">
        <ele>557.871064</ele>
        <time>2022-03-14T16:05:21.869Z</time>
      </trkpt>
      <trkpt lat="46.57355" lon="5.75819">
        <ele>558.819281</ele>
        <time>2022-03-14T16:05:27.354Z</time>
      </trkpt>
      <trkpt lat="46.57356" lon="5.75859">
        <ele>560.336171</ele>
        <time>2022-03-14T16:05:36.460Z</time>
      </trkpt>
      <trkpt lat="46.57349" lon="5.7591">
        <ele>562.301816</ele>
        <time>2022-03-14T16:05:50.749Z</time>
      </trkpt>
      <trkpt lat="46.57347" lon="5.7594">
        <ele>563.448774</ele>
        <time>2022-03-14T16:06:00.973Z</time>
      </trkpt>
      <trkpt lat="46.57349" lon="5.75967">
        <ele>564.481994</ele>
        <time>2022-03-14T16:06:08.374Z</time>
      </trkpt>
      <trkpt lat="46.57372" lon="5.76066">
        <ele>568.802546</ele>
        <time>2022-03-14T16:06:39.605Z</time>
      </trkpt>
      <trkpt lat="46.57373" lon="5.76079">
        <ele>569.427039</ele>
        <time>2022-03-14T16:06:44.036Z</time>
      </trkpt>
      <trkpt lat="46.57372" lon="5.7614">
        <ele>572.341719</ele>
        <time>2022-03-14T16:07:03.998Z</time>
      </trkpt>
      <trkpt lat="46.57376" lon="5.76159">
        <ele>573.311306</ele>
        <time>2022-03-14T16:07:10.394Z</time>
      </trkpt>
      <trkpt lat="46.57385" lon="5.76207">
        <ele>575.697834</ele>
        <time>2022-03-14T16:07:26.132Z</time>
      </trkpt>
      <trkpt lat="46.57422" lon="5.76295">
        <ele>580.193169</ele>
        <time>2022-03-14T16:07:59.390Z</time>
      </trkpt>
      <trkpt lat="46.57447" lon="5.76402">
        <ele>583.36263</ele>
        <time>2022-03-14T16:08:31.599Z</time>
      </trkpt>
      <trkpt lat="46.57477" lon="5.76475">
        <ele>585.718594</ele>
        <time>2022-03-14T16:08:48.659Z</time>
      </trkpt>
      <trkpt lat="46.57485" lon="5.76517">
        <ele>586.870313</ele>
        <time>2022-03-14T16:08:55.098Z</time>
      </trkpt>
      <trkpt lat="46.57485" lon="5.76545">
        <ele>586.504555</ele>
        <time>2022-03-14T16:08:58.702Z</time>
      </trkpt>
      <trkpt lat="46.57487" lon="5.76621">
        <ele>585.502388</ele>
        <time>2022-03-14T16:09:06.934Z</time>
      </trkpt>
      <trkpt lat="46.57489" lon="5.76673">
        <ele>584.804279</ele>
        <time>2022-03-14T16:09:12.160Z</time>
      </trkpt>
      <trkpt lat="46.57495" lon="5.76754">
        <ele>583.73571</ele>
        <time>2022-03-14T16:09:19.768Z</time>
      </trkpt>
      <trkpt lat="46.57529" lon="5.76923">
        <ele>579.98073</ele>
        <time>2022-03-14T16:09:35.522Z</time>
      </trkpt>
      <trkpt lat="46.57599" lon="5.77378">
        <ele>573.994854</ele>
        <time>2022-03-14T16:10:22.759Z</time>
      </trkpt>
      <trkpt lat="46.57622" lon="5.77573">
        <ele>574.18522</ele>
        <time>2022-03-14T16:10:51.845Z</time>
      </trkpt>
      <trkpt lat="46.57624" lon="5.77629">
        <ele>574.688235</ele>
        <time>2022-03-14T16:11:01.523Z</time>
      </trkpt>
      <trkpt lat="46.57627" lon="5.77675">
        <ele>575.097944</ele>
        <time>2022-03-14T16:11:09.500Z</time>
      </trkpt>
      <trkpt lat="46.5763" lon="5.77687">
        <ele>575.208522</ele>
        <time>2022-03-14T16:11:11.428Z</time>
      </trkpt>
      <trkpt lat="46.57626" lon="5.77699">
        <ele>575.335511</ele>
        <time>2022-03-14T16:11:14.464Z</time>
      </trkpt>
      <trkpt lat="46.57598" lon="5.78062">
        <ele>577.271163</ele>
        <time>2022-03-14T16:12:07.233Z</time>
      </trkpt>
      <trkpt lat="46.57566" lon="5.78286">
        <ele>575.576986</ele>
        <time>2022-03-14T16:12:32.125Z</time>
      </trkpt>
      <trkpt lat="46.57546" lon="5.78385">
        <ele>573.92683</ele>
        <time>2022-03-14T16:12:42.225Z</time>
      </trkpt>
      <trkpt lat="46.57486" lon="5.78526">
        <ele>570.70395</ele>
        <time>2022-03-14T16:12:57.966Z</time>
      </trkpt>
      <trkpt lat="46.57454" lon="5.7864">
        <ele>568.802164</ele>
        <time>2022-03-14T16:13:09.465Z</time>
      </trkpt>
      <trkpt lat="46.57381" lon="5.7874">
        <ele>566.664494</ele>
        <time>2022-03-14T16:13:24.250Z</time>
      </trkpt>
      <trkpt lat="46.57334" lon="5.78842">
        <ele>567.587354</ele>
        <time>2022-03-14T16:13:39.234Z</time>
      </trkpt>
      <trkpt lat="46.5726" lon="5.78949">
        <ele>569.169017</ele>
        <time>2022-03-14T16:14:08.587Z</time>
      </trkpt>
      <trkpt lat="46.57206" lon="5.79065">
        <ele>572.280274</ele>
        <time>2022-03-14T16:14:41.779Z</time>
      </trkpt>
      <trkpt lat="46.57154" lon="5.79135">
        <ele>574.558819</ele>
        <time>2022-03-14T16:15:04.591Z</time>
      </trkpt>
      <trkpt lat="46.57139" lon="5.79165">
        <ele>574.889857</ele>
        <time>2022-03-14T16:15:11.964Z</time>
      </trkpt>
      <trkpt lat="46.57062" lon="5.79312">
        <ele>573.539765</ele>
        <time>2022-03-14T16:15:33.373Z</time>
      </trkpt>
      <trkpt lat="46.57012" lon="5.79471">
        <ele>569.069302</ele>
        <time>2022-03-14T16:15:48.684Z</time>
      </trkpt>
      <trkpt lat="46.56974" lon="5.79562">
        <ele>565.365514</ele>
        <time>2022-03-14T16:15:57.606Z</time>
      </trkpt>
      <trkpt lat="46.5697" lon="5.79601">
        <ele>563.966244</ele>
        <time>2022-03-14T16:16:01.164Z</time>
      </trkpt>
      <trkpt lat="46.56972" lon="5.7962">
        <ele>563.757675</ele>
        <time>2022-03-14T16:16:02.792Z</time>
      </trkpt>
      <trkpt lat="46.56978" lon="5.7965">
        <ele>563.441209</ele>
        <time>2022-03-14T16:16:05.707Z</time>
      </trkpt>
      <trkpt lat="46.56984" lon="5.79682">
        <ele>563.090215</ele>
        <time>2022-03-14T16:16:08.781Z</time>
      </trkpt>
      <trkpt lat="46.56986" lon="5.79705">
        <ele>562.85565</ele>
        <time>2022-03-14T16:16:11.122Z</time>
      </trkpt>
      <trkpt lat="46.56982" lon="5.79727">
        <ele>562.616309</ele>
        <time>2022-03-14T16:16:13.278Z</time>
      </trkpt>
      <trkpt lat="46.56941" lon="5.79818">
        <ele>561.484297</ele>
        <time>2022-03-14T16:16:25.837Z</time>
      </trkpt>
      <trkpt lat="46.56888" lon="5.79973">
        <ele>563.706989</ele>
        <time>2022-03-14T16:17:01.509Z</time>
      </trkpt>
      <trkpt lat="46.56857" lon="5.80019">
        <ele>564.763679</ele>
        <time>2022-03-14T16:17:13.917Z</time>
      </trkpt>
      <trkpt lat="46.56853" lon="5.80023">
        <ele>564.894684</ele>
        <time>2022-03-14T16:17:16.643Z</time>
      </trkpt>
      <trkpt lat="46.56814" lon="5.80059">
        <ele>565.726688</ele>
        <time>2022-03-14T16:17:28.560Z</time>
      </trkpt>
      <trkpt lat="46.56622" lon="5.80265">
        <ele>567.078495</ele>
        <time>2022-03-14T16:18:15.436Z</time>
      </trkpt>
      <trkpt lat="46.56487" lon="5.8048">
        <ele>566.729085</ele>
        <time>2022-03-14T16:18:49.182Z</time>
      </trkpt>
      <trkpt lat="46.56403" lon="5.80572">
        <ele>566.660908</ele>
        <time>2022-03-14T16:19:06.999Z</time>
      </trkpt>
      <trkpt lat="46.56306" lon="5.80703">
        <ele>567.805498</ele>
        <time>2022-03-14T16:19:36.090Z</time>
      </trkpt>
      <trkpt lat="46.56277" lon="5.80763">
        <ele>568.352665</ele>
        <time>2022-03-14T16:19:48.162Z</time>
      </trkpt>
      <trkpt lat="46.56259" lon="5.8079">
        <ele>568.684403</ele>
        <time>2022-03-14T16:19:54.649Z</time>
      </trkpt>
      <trkpt lat="46.56249" lon="5.80805">
        <ele>568.871725</ele>
        <time>2022-03-14T16:19:57.515Z</time>
      </trkpt>
      <trkpt lat="46.56231" lon="5.80838">
        <ele>569.242885</ele>
        <time>2022-03-14T16:20:04.992Z</time>
      </trkpt>
      <trkpt lat="46.56227" lon="5.80845">
        <ele>569.323913</ele>
        <time>2022-03-14T16:20:05.970Z</time>
      </trkpt>
      <trkpt lat="46.56204" lon="5.80871">
        <ele>569.711568</ele>
        <time>2022-03-14T16:20:13.657Z</time>
      </trkpt>
      <trkpt lat="46.56139" lon="5.80914">
        <ele>570.379633</ele>
        <time>2022-03-14T16:20:29.659Z</time>
      </trkpt>
      <trkpt lat="46.56049" lon="5.81009">
        <ele>570.490286</ele>
        <time>2022-03-14T16:20:48.805Z</time>
      </trkpt>
      <trkpt lat="46.55981" lon="5.81064">
        <ele>570.45437</ele>
        <time>2022-03-14T16:21:02.372Z</time>
      </trkpt>
      <trkpt lat="46.5595" lon="5.81079">
        <ele>570.36593</ele>
        <time>2022-03-14T16:21:08.589Z</time>
      </trkpt>
      <trkpt lat="46.55848" lon="5.81094">
        <ele>570.087551</ele>
        <time>2022-03-14T16:21:25.773Z</time>
      </trkpt>
      <trkpt lat="46.55825" lon="5.81105">
        <ele>570.095143</ele>
        <time>2022-03-14T16:21:29.731Z</time>
      </trkpt>
      <trkpt lat="46.55817" lon="5.8111">
        <ele>570.135333</ele>
        <time>2022-03-14T16:21:31.034Z</time>
      </trkpt>
      <trkpt lat="46.55797" lon="5.8112">
        <ele>570.232331</ele>
        <time>2022-03-14T16:21:35.664Z</time>
      </trkpt>
      <trkpt lat="46.55782" lon="5.81124">
        <ele>570.301466</ele>
        <time>2022-03-14T16:21:37.899Z</time>
      </trkpt>
      <trkpt lat="46.55776" lon="5.81123">
        <ele>570.331257</ele>
        <time>2022-03-14T16:21:39.469Z</time>
      </trkpt>
      <trkpt lat="46.5577" lon="5.81118">
        <ele>570.360276</ele>
        <time>2022-03-14T16:21:40.537Z</time>
      </trkpt>
      <trkpt lat="46.55766" lon="5.81112">
        <ele>570.390259</ele>
        <time>2022-03-14T16:21:42.382Z</time>
      </trkpt>
      <trkpt lat="46.55763" lon="5.81104">
        <ele>570.418166</ele>
        <time>2022-03-14T16:21:43.349Z</time>
      </trkpt>
      <trkpt lat="46.55759" lon="5.81086">
        <ele>570.475848</ele>
        <time>2022-03-14T16:21:45.298Z</time>
      </trkpt>
      <trkpt lat="46.55757" lon="5.81082">
        <ele>570.492355</ele>
        <time>2022-03-14T16:21:46.125Z</time>
      </trkpt>
      <trkpt lat="46.55753" lon="5.81077">
        <ele>570.519942</ele>
        <time>2022-03-14T16:21:47.140Z</time>
      </trkpt>
      <trkpt lat="46.55748" lon="5.81072">
        <ele>570.546693</ele>
        <time>2022-03-14T16:21:48.865Z</time>
      </trkpt>
      <trkpt lat="46.5574" lon="5.81069">
        <ele>570.582645</ele>
        <time>2022-03-14T16:21:50.728Z</time>
      </trkpt>
      <trkpt lat="46.55718" lon="5.81068">
        <ele>570.688125</ele>
        <time>2022-03-14T16:21:54.274Z</time>
      </trkpt>
      <trkpt lat="46.55712" lon="5.81069">
        <ele>570.716412</ele>
        <time>2022-03-14T16:21:55.916Z</time>
      </trkpt>
      <trkpt lat="46.55707" lon="5.81069">
        <ele>570.738683</ele>
        <time>2022-03-14T16:21:57.406Z</time>
      </trkpt>
      <trkpt lat="46.55682" lon="5.81075">
        <ele>570.852778</ele>
        <time>2022-03-14T16:22:00.976Z</time>
      </trkpt>
      <trkpt lat="46.55679" lon="5.81075">
        <ele>570.866777</ele>
        <time>2022-03-14T16:22:01.707Z</time>
      </trkpt>
      <trkpt lat="46.55605" lon="5.81101">
        <ele>573.458587</ele>
        <time>2022-03-14T16:22:28.807Z</time>
      </trkpt>
      <trkpt lat="46.556" lon="5.81102">
        <ele>573.628717</ele>
        <time>2022-03-14T16:22:34.239Z</time>
      </trkpt>
      <trkpt lat="46.55599" lon="5.81102">
        <ele>573.674671</ele>
        <time>2022-03-14T16:22:34.466Z</time>
      </trkpt>
      <trkpt lat="46.55589" lon="5.81097">
        <ele>574.047189</ele>
        <time>2022-03-14T16:22:37.062Z</time>
      </trkpt>
      <trkpt lat="46.55582" lon="5.81089">
        <ele>574.38595</ele>
        <time>2022-03-14T16:22:38.431Z</time>
      </trkpt>
      <trkpt lat="46.55554" lon="5.81065">
        <ele>575.510894</ele>
        <time>2022-03-14T16:22:51.898Z</time>
      </trkpt>
      <trkpt lat="46.55548" lon="5.81061">
        <ele>575.741921</ele>
        <time>2022-03-14T16:22:52.903Z</time>
      </trkpt>
      <trkpt lat="46.55542" lon="5.8106">
        <ele>575.957995</ele>
        <time>2022-03-14T16:22:53.989Z</time>
      </trkpt>
      <trkpt lat="46.55537" lon="5.81063">
        <ele>576.132014</ele>
        <time>2022-03-14T16:22:59.606Z</time>
      </trkpt>
      <trkpt lat="46.55531" lon="5.81074">
        <ele>576.479281</ele>
        <time>2022-03-14T16:23:01.393Z</time>
      </trkpt>
      <trkpt lat="46.55521" lon="5.81125">
        <ele>576.972941</ele>
        <time>2022-03-14T16:23:07.640Z</time>
      </trkpt>
      <trkpt lat="46.55514" lon="5.81135">
        <ele>576.832196</ele>
        <time>2022-03-14T16:23:08.662Z</time>
      </trkpt>
      <trkpt lat="46.55495" lon="5.81152">
        <ele>576.507066</ele>
        <time>2022-03-14T16:23:21.363Z</time>
      </trkpt>
      <trkpt lat="46.55514" lon="5.81135">
        <ele>576.181937</ele>
        <time>2022-03-14T16:23:23.927Z</time>
      </trkpt>
      <trkpt lat="46.55521" lon="5.81125">
        <ele>576.041192</ele>
        <time>2022-03-14T16:23:33.188Z</time>
      </trkpt>
      <trkpt lat="46.55531" lon="5.81074">
        <ele>575.512692</ele>
        <time>2022-03-14T16:23:40.133Z</time>
      </trkpt>
      <trkpt lat="46.55537" lon="5.81063">
        <ele>575.369647</ele>
        <time>2022-03-14T16:23:41.858Z</time>
      </trkpt>
      <trkpt lat="46.55542" lon="5.8106">
        <ele>575.297966</ele>
        <time>2022-03-14T16:23:42.393Z</time>
      </trkpt>
      <trkpt lat="46.55548" lon="5.81061">
        <ele>575.208962</ele>
        <time>2022-03-14T16:23:43.509Z</time>
      </trkpt>
      <trkpt lat="46.55554" lon="5.81065">
        <ele>575.113798</ele>
        <time>2022-03-14T16:23:44.996Z</time>
      </trkpt>
      <trkpt lat="46.55582" lon="5.81089">
        <ele>574.650415</ele>
        <time>2022-03-14T16:23:48.940Z</time>
      </trkpt>
      <trkpt lat="46.55589" lon="5.81097">
        <ele>574.438497</ele>
        <time>2022-03-14T16:23:51.587Z</time>
      </trkpt>
      <trkpt lat="46.55599" lon="5.81102">
        <ele>574.158731</ele>
        <time>2022-03-14T16:23:53.173Z</time>
      </trkpt>
      <trkpt lat="46.556" lon="5.81102">
        <ele>574.124219</ele>
        <time>2022-03-14T16:23:53.460Z</time>
      </trkpt>
      <trkpt lat="46.55605" lon="5.81101">
        <ele>573.99645</ele>
        <time>2022-03-14T16:23:53.978Z</time>
      </trkpt>
      <trkpt lat="46.55679" lon="5.81075">
        <ele>571.981922</ele>
        <time>2022-03-14T16:24:03.873Z</time>
      </trkpt>
      <trkpt lat="46.55682" lon="5.81075">
        <ele>571.901976</ele>
        <time>2022-03-14T16:24:04.316Z</time>
      </trkpt>
      <trkpt lat="46.55707" lon="5.81069">
        <ele>571.250397</ele>
        <time>2022-03-14T16:24:10.961Z</time>
      </trkpt>
      <trkpt lat="46.55712" lon="5.81069">
        <ele>571.123209</ele>
        <time>2022-03-14T16:24:11.615Z</time>
      </trkpt>
      <trkpt lat="46.55718" lon="5.81068">
        <ele>570.961667</ele>
        <time>2022-03-14T16:24:12.484Z</time>
      </trkpt>
      <trkpt lat="46.5574" lon="5.81069">
        <ele>570.359282</ele>
        <time>2022-03-14T16:24:17.729Z</time>
      </trkpt>
      <trkpt lat="46.55748" lon="5.81072">
        <ele>570.153965</ele>
        <time>2022-03-14T16:24:18.907Z</time>
      </trkpt>
      <trkpt lat="46.55753" lon="5.81077">
        <ele>570.001198</ele>
        <time>2022-03-14T16:24:19.694Z</time>
      </trkpt>
      <trkpt lat="46.55757" lon="5.81082">
        <ele>569.851058</ele>
        <time>2022-03-14T16:24:20.856Z</time>
      </trkpt>
      <trkpt lat="46.55759" lon="5.81086">
        <ele>569.860983</ele>
        <time>2022-03-14T16:24:21.414Z</time>
      </trkpt>
      <trkpt lat="46.55763" lon="5.81104">
        <ele>569.895666</ele>
        <time>2022-03-14T16:24:24.223Z</time>
      </trkpt>
      <trkpt lat="46.55766" lon="5.81112">
        <ele>569.912446</ele>
        <time>2022-03-14T16:24:25.559Z</time>
      </trkpt>
      <trkpt lat="46.5577" lon="5.81118">
        <ele>569.930473</ele>
        <time>2022-03-14T16:24:26.458Z</time>
      </trkpt>
      <trkpt lat="46.55776" lon="5.81123">
        <ele>569.947921</ele>
        <time>2022-03-14T16:24:27.696Z</time>
      </trkpt>
      <trkpt lat="46.55782" lon="5.81124">
        <ele>569.965834</ele>
        <time>2022-03-14T16:24:28.649Z</time>
      </trkpt>
      <trkpt lat="46.55797" lon="5.8112">
        <ele>570.007403</ele>
        <time>2022-03-14T16:24:32.394Z</time>
      </trkpt>
      <trkpt lat="46.55817" lon="5.8111">
        <ele>570.065726</ele>
        <time>2022-03-14T16:24:35.700Z</time>
      </trkpt>
      <trkpt lat="46.55825" lon="5.81105">
        <ele>570.08989</ele>
        <time>2022-03-14T16:24:37.864Z</time>
      </trkpt>
      <trkpt lat="46.55848" lon="5.81094">
        <ele>570.15703</ele>
        <time>2022-03-14T16:24:42.818Z</time>
      </trkpt>
      <trkpt lat="46.5595" lon="5.81079">
        <ele>570.422581</ele>
        <time>2022-03-14T16:25:03.010Z</time>
      </trkpt>
      <trkpt lat="46.55981" lon="5.81064">
        <ele>570.494075</ele>
        <time>2022-03-14T16:25:08.561Z</time>
      </trkpt>
      <trkpt lat="46.56049" lon="5.81009">
        <ele>570.665927</ele>
        <time>2022-03-14T16:25:23.093Z</time>
      </trkpt>
      <trkpt lat="46.56139" lon="5.80914">
        <ele>571.606283</ele>
        <time>2022-03-14T16:25:44.543Z</time>
      </trkpt>
      <trkpt lat="46.56204" lon="5.80871">
        <ele>572.433822</ele>
        <time>2022-03-14T16:26:00.726Z</time>
      </trkpt>
      <trkpt lat="46.56227" lon="5.80845">
        <ele>572.779256</ele>
        <time>2022-03-14T16:26:07.951Z</time>
      </trkpt>
      <trkpt lat="46.56231" lon="5.80838">
        <ele>572.916508</ele>
        <time>2022-03-14T16:26:10.168Z</time>
      </trkpt>
      <trkpt lat="46.56237" lon="5.80833">
        <ele>573.187171</ele>
        <time>2022-03-14T16:26:11.758Z</time>
      </trkpt>
      <trkpt lat="46.56285" lon="5.80798">
        <ele>575.428433</ele>
        <time>2022-03-14T16:26:27.745Z</time>
      </trkpt>
      <trkpt lat="46.56316" lon="5.80781">
        <ele>576.801868</ele>
        <time>2022-03-14T16:26:39.212Z</time>
      </trkpt>
      <trkpt lat="46.56378" lon="5.80743">
        <ele>579.620484</ele>
        <time>2022-03-14T16:27:05.555Z</time>
      </trkpt>
      <trkpt lat="46.56421" lon="5.80708">
        <ele>582.579963</ele>
        <time>2022-03-14T16:27:26.839Z</time>
      </trkpt>
      <trkpt lat="46.56471" lon="5.80641">
        <ele>587.35724</ele>
        <time>2022-03-14T16:27:58.704Z</time>
      </trkpt>
      <trkpt lat="46.5655" lon="5.80575">
        <ele>593.791541</ele>
        <time>2022-03-14T16:28:42.687Z</time>
      </trkpt>
      <trkpt lat="46.56598" lon="5.80505">
        <ele>599.18257</ele>
        <time>2022-03-14T16:29:16.518Z</time>
      </trkpt>
      <trkpt lat="46.56694" lon="5.80386">
        <ele>609.383986</ele>
        <time>2022-03-14T16:30:20.592Z</time>
      </trkpt>
      <trkpt lat="46.56951" lon="5.80161">
        <ele>636.857232</ele>
        <time>2022-03-14T16:33:02.489Z</time>
      </trkpt>
      <trkpt lat="46.57031" lon="5.80103">
        <ele>646.567835</ele>
        <time>2022-03-14T16:34:03.478Z</time>
      </trkpt>
      <trkpt lat="46.57082" lon="5.80073">
        <ele>652.822488</ele>
        <time>2022-03-14T16:34:39.753Z</time>
      </trkpt>
      <trkpt lat="46.57106" lon="5.80059">
        <ele>655.832859</ele>
        <time>2022-03-14T16:34:57.430Z</time>
      </trkpt>
      <trkpt lat="46.57185" lon="5.80026">
        <ele>663.524098</ele>
        <time>2022-03-14T16:35:48.385Z</time>
      </trkpt>
      <trkpt lat="46.57244" lon="5.79993">
        <ele>667.874372</ele>
        <time>2022-03-14T16:36:19.750Z</time>
      </trkpt>
      <trkpt lat="46.5725" lon="5.79992">
        <ele>668.287977</ele>
        <time>2022-03-14T16:36:22.368Z</time>
      </trkpt>
      <trkpt lat="46.57273" lon="5.79987">
        <ele>669.926595</ele>
        <time>2022-03-14T16:36:30.746Z</time>
      </trkpt>
      <trkpt lat="46.57325" lon="5.79986">
        <ele>673.319706</ele>
        <time>2022-03-14T16:36:50.492Z</time>
      </trkpt>
      <trkpt lat="46.57357" lon="5.80035">
        <ele>673.856875</ele>
        <time>2022-03-14T16:37:02.566Z</time>
      </trkpt>
      <trkpt lat="46.57368" lon="5.80043">
        <ele>674.00387</ele>
        <time>2022-03-14T16:37:04.502Z</time>
      </trkpt>
      <trkpt lat="46.57362" lon="5.80105">
        <ele>674.505291</ele>
        <time>2022-03-14T16:37:13.604Z</time>
      </trkpt>
      <trkpt lat="46.57356" lon="5.80157">
        <ele>674.932284</ele>
        <time>2022-03-14T16:37:20.570Z</time>
      </trkpt>
      <trkpt lat="46.57355" lon="5.80176">
        <ele>675.085062</ele>
        <time>2022-03-14T16:37:23.775Z</time>
      </trkpt>
      <trkpt lat="46.57365" lon="5.80204">
        <ele>675.337141</ele>
        <time>2022-03-14T16:37:27.273Z</time>
      </trkpt>
      <trkpt lat="46.57388" lon="5.80233">
        <ele>676.103508</ele>
        <time>2022-03-14T16:37:32.960Z</time>
      </trkpt>
      <trkpt lat="46.57386" lon="5.80239">
        <ele>676.236257</ele>
        <time>2022-03-14T16:37:34.241Z</time>
      </trkpt>
      <trkpt lat="46.5738" lon="5.80299">
        <ele>677.384634</ele>
        <time>2022-03-14T16:37:45.313Z</time>
      </trkpt>
      <trkpt lat="46.57368" lon="5.80404">
        <ele>679.383864</ele>
        <time>2022-03-14T16:38:06.470Z</time>
      </trkpt>
      <trkpt lat="46.57361" lon="5.80462">
        <ele>680.69961</ele>
        <time>2022-03-14T16:38:21.970Z</time>
      </trkpt>
      <trkpt lat="46.57348" lon="5.80567">
        <ele>685.028471</ele>
        <time>2022-03-14T16:38:53.369Z</time>
      </trkpt>
      <trkpt lat="46.57328" lon="5.80602">
        <ele>686.917512</ele>
        <time>2022-03-14T16:39:07.315Z</time>
      </trkpt>
      <trkpt lat="46.57254" lon="5.80693">
        <ele>692.279715</ele>
        <time>2022-03-14T16:39:48.431Z</time>
      </trkpt>
      <trkpt lat="46.57178" lon="5.80849">
        <ele>698.559714</ele>
        <time>2022-03-14T16:40:34.398Z</time>
      </trkpt>
      <trkpt lat="46.57149" lon="5.80898">
        <ele>700.519075</ele>
        <time>2022-03-14T16:40:51.325Z</time>
      </trkpt>
      <trkpt lat="46.57101" lon="5.80953">
        <ele>702.938485</ele>
        <time>2022-03-14T16:41:12.404Z</time>
      </trkpt>
      <trkpt lat="46.57084" lon="5.80985">
        <ele>704.055934</ele>
        <time>2022-03-14T16:41:21.660Z</time>
      </trkpt>
      <trkpt lat="46.57072" lon="5.81011">
        <ele>704.913705</ele>
        <time>2022-03-14T16:41:29.109Z</time>
      </trkpt>
      <trkpt lat="46.57068" lon="5.81009">
        <ele>705.069229</ele>
        <time>2022-03-14T16:41:30.901Z</time>
      </trkpt>
      <trkpt lat="46.56934" lon="5.81016">
        <ele>709.214892</ele>
        <time>2022-03-14T16:42:27.708Z</time>
      </trkpt>
      <trkpt lat="46.56888" lon="5.81026">
        <ele>710.449294</ele>
        <time>2022-03-14T16:42:45.362Z</time>
      </trkpt>
      <trkpt lat="46.5688" lon="5.81026">
        <ele>710.666822</ele>
        <time>2022-03-14T16:42:48.216Z</time>
      </trkpt>
      <trkpt lat="46.56877" lon="5.81025">
        <ele>710.755442</ele>
        <time>2022-03-14T16:42:49.722Z</time>
      </trkpt>
      <trkpt lat="46.56796" lon="5.81012">
        <ele>712.870757</ele>
        <time>2022-03-14T16:43:20.079Z</time>
      </trkpt>
      <trkpt lat="46.56791" lon="5.81012">
        <ele>713.007074</ele>
        <time>2022-03-14T16:43:22.333Z</time>
      </trkpt>
      <trkpt lat="46.56782" lon="5.81013">
        <ele>713.23393</ele>
        <time>2022-03-14T16:43:26.961Z</time>
      </trkpt>
      <trkpt lat="46.56766" lon="5.8102">
        <ele>713.670233</ele>
        <time>2022-03-14T16:43:33.309Z</time>
      </trkpt>
      <trkpt lat="46.56755" lon="5.81035">
        <ele>714.062715</ele>
        <time>2022-03-14T16:43:40.198Z</time>
      </trkpt>
      <trkpt lat="46.56707" lon="5.81171">
        <ele>716.425933</ele>
        <time>2022-03-14T16:44:21.931Z</time>
      </trkpt>
      <trkpt lat="46.56705" lon="5.81175">
        <ele>716.463864</ele>
        <time>2022-03-14T16:44:24.303Z</time>
      </trkpt>
      <trkpt lat="46.56702" lon="5.81179">
        <ele>716.507875</ele>
        <time>2022-03-14T16:44:25.794Z</time>
      </trkpt>
      <trkpt lat="46.56652" lon="5.81218">
        <ele>717.151646</ele>
        <time>2022-03-14T16:44:46.088Z</time>
      </trkpt>
      <trkpt lat="46.56635" lon="5.81232">
        <ele>717.373877</ele>
        <time>2022-03-14T16:44:53.408Z</time>
      </trkpt>
      <trkpt lat="46.56618" lon="5.81241">
        <ele>717.571703</ele>
        <time>2022-03-14T16:44:59.101Z</time>
      </trkpt>
      <trkpt lat="46.56589" lon="5.81249">
        <ele>717.906942</ele>
        <time>2022-03-14T16:45:09.301Z</time>
      </trkpt>
      <trkpt lat="46.56544" lon="5.81241">
        <ele>717.946673</ele>
        <time>2022-03-14T16:45:21.576Z</time>
      </trkpt>
      <trkpt lat="46.56485" lon="5.81216">
        <ele>717.171508</ele>
        <time>2022-03-14T16:45:38.132Z</time>
      </trkpt>
      <trkpt lat="46.56452" lon="5.8118">
        <ele>716.65408</ele>
        <time>2022-03-14T16:45:48.980Z</time>
      </trkpt>
      <trkpt lat="46.56448" lon="5.81176">
        <ele>716.593917</ele>
        <time>2022-03-14T16:45:49.996Z</time>
      </trkpt>
      <trkpt lat="46.56441" lon="5.81162">
        <ele>716.446304</ele>
        <time>2022-03-14T16:45:53.139Z</time>
      </trkpt>
      <trkpt lat="46.56426" lon="5.81146">
        <ele>716.212237</ele>
        <time>2022-03-14T16:45:59.194Z</time>
      </trkpt>
      <trkpt lat="46.56424" lon="5.81144">
        <ele>716.184985</ele>
        <time>2022-03-14T16:45:59.614Z</time>
      </trkpt>
      <trkpt lat="46.56421" lon="5.81142">
        <ele>716.136154</ele>
        <time>2022-03-14T16:46:00.508Z</time>
      </trkpt>
      <trkpt lat="46.56413" lon="5.81137">
        <ele>716.029824</ele>
        <time>2022-03-14T16:46:01.832Z</time>
      </trkpt>
      <trkpt lat="46.56388" lon="5.81136">
        <ele>716.157492</ele>
        <time>2022-03-14T16:46:06.015Z</time>
      </trkpt>
      <trkpt lat="46.56346" lon="5.81169">
        <ele>716.797077</ele>
        <time>2022-03-14T16:46:14.139Z</time>
      </trkpt>
      <trkpt lat="46.56276" lon="5.81286">
        <ele>718.205734</ele>
        <time>2022-03-14T16:46:42.268Z</time>
      </trkpt>
      <trkpt lat="46.56199" lon="5.81337">
        <ele>721.86068</ele>
        <time>2022-03-14T16:47:10.945Z</time>
      </trkpt>
      <trkpt lat="46.56161" lon="5.81414">
        <ele>724.916605</ele>
        <time>2022-03-14T16:47:35.517Z</time>
      </trkpt>
      <trkpt lat="46.56128" lon="5.81458">
        <ele>727.183661</ele>
        <time>2022-03-14T16:47:53.810Z</time>
      </trkpt>
      <trkpt lat="46.56113" lon="5.8146">
        <ele>728.287937</ele>
        <time>2022-03-14T16:48:00.133Z</time>
      </trkpt>
      <trkpt lat="46.56087" lon="5.81436">
        <ele>730.489747</ele>
        <time>2022-03-14T16:48:13.386Z</time>
      </trkpt>
      <trkpt lat="46.56069" lon="5.81434">
        <ele>731.80687</ele>
        <time>2022-03-14T16:48:21.704Z</time>
      </trkpt>
      <trkpt lat="46.56025" lon="5.81485">
        <ele>735.955138</ele>
        <time>2022-03-14T16:48:49.464Z</time>
      </trkpt>
      <trkpt lat="46.55975" lon="5.81517">
        <ele>739.905318</ele>
        <time>2022-03-14T16:49:17.420Z</time>
      </trkpt>
      <trkpt lat="46.55912" lon="5.8151">
        <ele>743.957476</ele>
        <time>2022-03-14T16:49:49.454Z</time>
      </trkpt>
      <trkpt lat="46.55823" lon="5.81536">
        <ele>749.703671</ele>
        <time>2022-03-14T16:50:28.553Z</time>
      </trkpt>
      <trkpt lat="46.55805" lon="5.81528">
        <ele>750.91822</ele>
        <time>2022-03-14T16:50:35.450Z</time>
      </trkpt>
      <trkpt lat="46.55773" lon="5.81496">
        <ele>751.707762</ele>
        <time>2022-03-14T16:50:47.132Z</time>
      </trkpt>
      <trkpt lat="46.55756" lon="5.81422">
        <ele>752.383154</ele>
        <time>2022-03-14T16:50:59.016Z</time>
      </trkpt>
      <trkpt lat="46.55751" lon="5.81411">
        <ele>752.496079</ele>
        <time>2022-03-14T16:51:00.369Z</time>
      </trkpt>
      <trkpt lat="46.55737" lon="5.81401">
        <ele>752.686716</ele>
        <time>2022-03-14T16:51:03.960Z</time>
      </trkpt>
      <trkpt lat="46.55721" lon="5.814">
        <ele>752.893605</ele>
        <time>2022-03-14T16:51:06.767Z</time>
      </trkpt>
      <trkpt lat="46.55692" lon="5.81419">
        <ele>753.29033</ele>
        <time>2022-03-14T16:51:12.452Z</time>
      </trkpt>
      <trkpt lat="46.55665" lon="5.81449">
        <ele>753.686583</ele>
        <time>2022-03-14T16:51:18.416Z</time>
      </trkpt>
      <trkpt lat="46.55655" lon="5.81458">
        <ele>753.806881</ele>
        <time>2022-03-14T16:51:20.101Z</time>
      </trkpt>
      <trkpt lat="46.55638" lon="5.81472">
        <ele>754.011407</ele>
        <time>2022-03-14T16:51:24.634Z</time>
      </trkpt>
      <trkpt lat="46.55571" lon="5.81579">
        <ele>755.031593</ele>
        <time>2022-03-14T16:51:44.122Z</time>
      </trkpt>
      <trkpt lat="46.55559" lon="5.81588">
        <ele>755.171595</ele>
        <time>2022-03-14T16:51:48.532Z</time>
      </trkpt>
      <trkpt lat="46.55529" lon="5.81591">
        <ele>755.680275</ele>
        <time>2022-03-14T16:51:57.075Z</time>
      </trkpt>
      <trkpt lat="46.55517" lon="5.81597">
        <ele>756.145483</ele>
        <time>2022-03-14T16:52:01.702Z</time>
      </trkpt>
      <trkpt lat="46.55445" lon="5.81677">
        <ele>759.366368</ele>
        <time>2022-03-14T16:52:29.593Z</time>
      </trkpt>
      <trkpt lat="46.55438" lon="5.81681">
        <ele>759.640112</ele>
        <time>2022-03-14T16:52:32.189Z</time>
      </trkpt>
      <trkpt lat="46.55432" lon="5.81684">
        <ele>759.891184</ele>
        <time>2022-03-14T16:52:34.978Z</time>
      </trkpt>
      <trkpt lat="46.55395" lon="5.81743">
        <ele>761.861723</ele>
        <time>2022-03-14T16:52:52.689Z</time>
      </trkpt>
      <trkpt lat="46.55369" lon="5.81797">
        <ele>764.290475</ele>
        <time>2022-03-14T16:53:10.026Z</time>
      </trkpt>
      <trkpt lat="46.55332" lon="5.81849">
        <ele>767.084725</ele>
        <time>2022-03-14T16:53:31.573Z</time>
      </trkpt>
      <trkpt lat="46.55294" lon="5.81906">
        <ele>770.019662</ele>
        <time>2022-03-14T16:53:52.749Z</time>
      </trkpt>
      <trkpt lat="46.55273" lon="5.81928">
        <ele>771.447066</ele>
        <time>2022-03-14T16:54:03.756Z</time>
      </trkpt>
      <trkpt lat="46.5519" lon="5.82055">
        <ele>777.990487</ele>
        <time>2022-03-14T16:54:53.597Z</time>
      </trkpt>
      <trkpt lat="46.55139" lon="5.82175">
        <ele>782.661713</ele>
        <time>2022-03-14T16:55:29.255Z</time>
      </trkpt>
      <trkpt lat="46.55096" lon="5.82247">
        <ele>785.195936</ele>
        <time>2022-03-14T16:55:51.066Z</time>
      </trkpt>
      <trkpt lat="46.55067" lon="5.82305">
        <ele>787.05941</ele>
        <time>2022-03-14T16:56:06.519Z</time>
      </trkpt>
      <trkpt lat="46.55057" lon="5.82318">
        <ele>787.586185</ele>
        <time>2022-03-14T16:56:10.753Z</time>
      </trkpt>
      <trkpt lat="46.55012" lon="5.82342">
        <ele>789.009158</ele>
        <time>2022-03-14T16:56:25.348Z</time>
      </trkpt>
      <trkpt lat="46.54985" lon="5.82377">
        <ele>789.932295</ele>
        <time>2022-03-14T16:56:36.248Z</time>
      </trkpt>
      <trkpt lat="46.54909" lon="5.82557">
        <ele>792.752227</ele>
        <time>2022-03-14T16:57:15.576Z</time>
      </trkpt>
      <trkpt lat="46.54877" lon="5.82651">
        <ele>792.733881</ele>
        <time>2022-03-14T16:57:29.095Z</time>
      </trkpt>
      <trkpt lat="46.54861" lon="5.82745">
        <ele>792.716809</ele>
        <time>2022-03-14T16:57:39.601Z</time>
      </trkpt>
      <trkpt lat="46.54858" lon="5.82765">
        <ele>792.566022</ele>
        <time>2022-03-14T16:57:41.711Z</time>
      </trkpt>
      <trkpt lat="46.54853" lon="5.82787">
        <ele>792.189017</ele>
        <time>2022-03-14T16:57:45.820Z</time>
      </trkpt>
      <trkpt lat="46.54777" lon="5.82968">
        <ele>788.821074</ele>
        <time>2022-03-14T16:58:22.117Z</time>
      </trkpt>
      <trkpt lat="46.54752" lon="5.83064">
        <ele>788.961815</ele>
        <time>2022-03-14T16:58:41.346Z</time>
      </trkpt>
      <trkpt lat="46.54729" lon="5.83107">
        <ele>789.226865</ele>
        <time>2022-03-14T16:58:52.602Z</time>
      </trkpt>
      <trkpt lat="46.5469" lon="5.83198">
        <ele>789.750058</ele>
        <time>2022-03-14T16:59:19.208Z</time>
      </trkpt>
      <trkpt lat="46.54672" lon="5.83218">
        <ele>790.401296</ele>
        <time>2022-03-14T16:59:30.913Z</time>
      </trkpt>
      <trkpt lat="46.54628" lon="5.83236">
        <ele>792.436206</ele>
        <time>2022-03-14T16:59:52.559Z</time>
      </trkpt>
      <trkpt lat="46.54607" lon="5.83235">
        <ele>793.376871</ele>
        <time>2022-03-14T17:00:04.065Z</time>
      </trkpt>
      <trkpt lat="46.54575" lon="5.83197">
        <ele>795.229112</ele>
        <time>2022-03-14T17:00:24.552Z</time>
      </trkpt>
      <trkpt lat="46.54562" lon="5.83206">
        <ele>795.894952</ele>
        <time>2022-03-14T17:00:30.910Z</time>
      </trkpt>
      <trkpt lat="46.54552" lon="5.83202">
        <ele>796.368546</ele>
        <time>2022-03-14T17:00:37.334Z</time>
      </trkpt>
      <trkpt lat="46.54545" lon="5.83198">
        <ele>796.678901</ele>
        <time>2022-03-14T17:00:40.768Z</time>
      </trkpt>
      <trkpt lat="46.54432" lon="5.8315">
        <ele>799.999703</ele>
        <time>2022-03-14T17:01:33.681Z</time>
      </trkpt>
      <trkpt lat="46.54345" lon="5.83123">
        <ele>802.051677</ele>
        <time>2022-03-14T17:02:03.857Z</time>
      </trkpt>
      <trkpt lat="46.54271" lon="5.83081">
        <ele>801.635006</ele>
        <time>2022-03-14T17:02:26.417Z</time>
      </trkpt>
      <trkpt lat="46.5421" lon="5.83013">
        <ele>801.230015</ele>
        <time>2022-03-14T17:02:47.353Z</time>
      </trkpt>
      <trkpt lat="46.54191" lon="5.82999">
        <ele>801.115579</ele>
        <time>2022-03-14T17:02:53.191Z</time>
      </trkpt>
      <trkpt lat="46.5411" lon="5.82981">
        <ele>802.183427</ele>
        <time>2022-03-14T17:03:17.778Z</time>
      </trkpt>
      <trkpt lat="46.54046" lon="5.82934">
        <ele>803.149271</ele>
        <time>2022-03-14T17:03:44.843Z</time>
      </trkpt>
      <trkpt lat="46.54032" lon="5.82911">
        <ele>803.429516</ele>
        <time>2022-03-14T17:03:52.925Z</time>
      </trkpt>
      <trkpt lat="46.5401" lon="5.82912">
        <ele>804.198138</ele>
        <time>2022-03-14T17:04:03.473Z</time>
      </trkpt>
      <trkpt lat="46.53945" lon="5.82922">
        <ele>807.023255</ele>
        <time>2022-03-14T17:04:34.162Z</time>
      </trkpt>
      <trkpt lat="46.53877" lon="5.82879">
        <ele>810.194437</ele>
        <time>2022-03-14T17:05:11.664Z</time>
      </trkpt>
      <trkpt lat="46.53816" lon="5.8284">
        <ele>812.265807</ele>
        <time>2022-03-14T17:05:42.359Z</time>
      </trkpt>
      <trkpt lat="46.53764" lon="5.82775">
        <ele>813.889199</ele>
        <time>2022-03-14T17:06:10.010Z</time>
      </trkpt>
      <trkpt lat="46.53746" lon="5.82759">
        <ele>814.404019</ele>
        <time>2022-03-14T17:06:18.108Z</time>
      </trkpt>
      <trkpt lat="46.53716" lon="5.82746">
        <ele>815.141684</ele>
        <time>2022-03-14T17:06:29.068Z</time>
      </trkpt>
      <trkpt lat="46.53543" lon="5.82604">
        <ele>814.967975</ele>
        <time>2022-03-14T17:07:26.243Z</time>
      </trkpt>
      <trkpt lat="46.53492" lon="5.82572">
        <ele>814.441174</ele>
        <time>2022-03-14T17:07:41.350Z</time>
      </trkpt>
      <trkpt lat="46.53373" lon="5.82518">
        <ele>813.288627</ele>
        <time>2022-03-14T17:08:15.496Z</time>
      </trkpt>
      <trkpt lat="46.53327" lon="5.82442">
        <ele>813.309092</ele>
        <time>2022-03-14T17:08:35.839Z</time>
      </trkpt>
      <trkpt lat="46.53291" lon="5.82398">
        <ele>813.322626</ele>
        <time>2022-03-14T17:08:50.040Z</time>
      </trkpt>
      <trkpt lat="46.53233" lon="5.8234">
        <ele>813.279669</ele>
        <time>2022-03-14T17:09:12.681Z</time>
      </trkpt>
      <trkpt lat="46.53188" lon="5.8231">
        <ele>812.954661</ele>
        <time>2022-03-14T17:09:28.313Z</time>
      </trkpt>
      <trkpt lat="46.53151" lon="5.82274">
        <ele>812.662623</ele>
        <time>2022-03-14T17:09:41.245Z</time>
      </trkpt>
      <trkpt lat="46.53118" lon="5.82225">
        <ele>812.347575</ele>
        <time>2022-03-14T17:09:54.353Z</time>
      </trkpt>
      <trkpt lat="46.53093" lon="5.82204">
        <ele>812.158022</ele>
        <time>2022-03-14T17:10:01.939Z</time>
      </trkpt>
      <trkpt lat="46.52983" lon="5.82133">
        <ele>807.245231</ele>
        <time>2022-03-14T17:10:31.325Z</time>
      </trkpt>
      <trkpt lat="46.5288" lon="5.82066">
        <ele>802.038124</ele>
        <time>2022-03-14T17:10:56.534Z</time>
      </trkpt>
      <trkpt lat="46.52831" lon="5.82026">
        <ele>799.174104</ele>
        <time>2022-03-14T17:11:09.038Z</time>
      </trkpt>
      <trkpt lat="46.52787" lon="5.81983">
        <ele>796.443369</ele>
        <time>2022-03-14T17:11:21.341Z</time>
      </trkpt>
      <trkpt lat="46.52803" lon="5.81982">
        <ele>795.60559</ele>
        <time>2022-03-14T17:11:25.291Z</time>
      </trkpt>
      <trkpt lat="46.52814" lon="5.81971">
        <ele>795.460374</ele>
        <time>2022-03-14T17:11:28.460Z</time>
      </trkpt>
      <trkpt lat="46.52821" lon="5.81948">
        <ele>795.363908</ele>
        <time>2022-03-14T17:11:32.632Z</time>
      </trkpt>
      <trkpt lat="46.52818" lon="5.81937">
        <ele>795.316776</ele>
        <time>2022-03-14T17:11:33.844Z</time>
      </trkpt>
      <trkpt lat="46.52716" lon="5.81741">
        <ele>794.707175</ele>
        <time>2022-03-14T17:12:06.523Z</time>
      </trkpt>
      <trkpt lat="46.52669" lon="5.81676">
        <ele>795.198</ele>
        <time>2022-03-14T17:12:23.584Z</time>
      </trkpt>
      <trkpt lat="46.52655" lon="5.81632">
        <ele>795.449227</ele>
        <time>2022-03-14T17:12:31.132Z</time>
      </trkpt>
      <trkpt lat="46.5264" lon="5.81556">
        <ele>795.855514</ele>
        <time>2022-03-14T17:12:41.270Z</time>
      </trkpt>
      <trkpt lat="46.5265" lon="5.81503">
        <ele>794.740155</ele>
        <time>2022-03-14T17:12:47.212Z</time>
      </trkpt>
      <trkpt lat="46.52644" lon="5.81468">
        <ele>793.968639</ele>
        <time>2022-03-14T17:12:50.822Z</time>
      </trkpt>
      <trkpt lat="46.5261" lon="5.8139">
        <ele>792.007561</ele>
        <time>2022-03-14T17:12:59.337Z</time>
      </trkpt>
      <trkpt lat="46.52596" lon="5.81377">
        <ele>791.499615</ele>
        <time>2022-03-14T17:13:01.465Z</time>
      </trkpt>
      <trkpt lat="46.52566" lon="5.81367">
        <ele>790.531576</ele>
        <time>2022-03-14T17:13:05.449Z</time>
      </trkpt>
      <trkpt lat="46.52551" lon="5.81345">
        <ele>789.848447</ele>
        <time>2022-03-14T17:13:08.101Z</time>
      </trkpt>
      <trkpt lat="46.52529" lon="5.81266">
        <ele>787.910125</ele>
        <time>2022-03-14T17:13:15.464Z</time>
      </trkpt>
      <trkpt lat="46.52518" lon="5.81161">
        <ele>785.475112</ele>
        <time>2022-03-14T17:13:25.187Z</time>
      </trkpt>
      <trkpt lat="46.52521" lon="5.81131">
        <ele>784.766231</ele>
        <time>2022-03-14T17:13:28.337Z</time>
      </trkpt>
      <trkpt lat="46.5253" lon="5.81093">
        <ele>784.742605</ele>
        <time>2022-03-14T17:13:32.879Z</time>
      </trkpt>
      <trkpt lat="46.52568" lon="5.80975">
        <ele>787.475841</ele>
        <time>2022-03-14T17:13:57.085Z</time>
      </trkpt>
      <trkpt lat="46.52587" lon="5.80857">
        <ele>790.068801</ele>
        <time>2022-03-14T17:14:30.220Z</time>
      </trkpt>
      <trkpt lat="46.52598" lon="5.80814">
        <ele>791.351435</ele>
        <time>2022-03-14T17:14:43.741Z</time>
      </trkpt>
      <trkpt lat="46.52623" lon="5.80753">
        <ele>793.351918</ele>
        <time>2022-03-14T17:15:04.934Z</time>
      </trkpt>
      <trkpt lat="46.52671" lon="5.80667">
        <ele>796.479423</ele>
        <time>2022-03-14T17:15:28.830Z</time>
      </trkpt>
      <trkpt lat="46.52697" lon="5.80597">
        <ele>796.057011</ele>
        <time>2022-03-14T17:15:39.731Z</time>
      </trkpt>
      <trkpt lat="46.52717" lon="5.80572">
        <ele>795.335078</ele>
        <time>2022-03-14T17:15:43.506Z</time>
      </trkpt>
      <trkpt lat="46.52726" lon="5.80563">
        <ele>795.039197</ele>
        <time>2022-03-14T17:15:45.177Z</time>
      </trkpt>
      <trkpt lat="46.5273" lon="5.80558">
        <ele>794.891256</ele>
        <time>2022-03-14T17:15:45.774Z</time>
      </trkpt>
      <trkpt lat="46.52771" lon="5.80514">
        <ele>793.484153</ele>
        <time>2022-03-14T17:15:52.650Z</time>
      </trkpt>
      <trkpt lat="46.52792" lon="5.80472">
        <ele>792.50588</ele>
        <time>2022-03-14T17:15:57.139Z</time>
      </trkpt>
      <trkpt lat="46.52833" lon="5.80432">
        <ele>790.606968</ele>
        <time>2022-03-14T17:16:03.223Z</time>
      </trkpt>
      <trkpt lat="46.52839" lon="5.80377">
        <ele>788.976835</ele>
        <time>2022-03-14T17:16:07.926Z</time>
      </trkpt>
      <trkpt lat="46.52871" lon="5.80298">
        <ele>786.305492</ele>
        <time>2022-03-14T17:16:16.181Z</time>
      </trkpt>
      <trkpt lat="46.52885" lon="5.80244">
        <ele>784.631974</ele>
        <time>2022-03-14T17:16:21.695Z</time>
      </trkpt>
      <trkpt lat="46.52896" lon="5.80168">
        <ele>784.442353</ele>
        <time>2022-03-14T17:16:29.891Z</time>
      </trkpt>
      <trkpt lat="46.52909" lon="5.80141">
        <ele>784.397667</ele>
        <time>2022-03-14T17:16:33.562Z</time>
      </trkpt>
      <trkpt lat="46.52915" lon="5.80117">
        <ele>784.362158</ele>
        <time>2022-03-14T17:16:36.626Z</time>
      </trkpt>
      <trkpt lat="46.52903" lon="5.80077">
        <ele>784.301482</ele>
        <time>2022-03-14T17:16:42.397Z</time>
      </trkpt>
      <trkpt lat="46.5288" lon="5.80061">
        <ele>784.250058</ele>
        <time>2022-03-14T17:16:47.779Z</time>
      </trkpt>
      <trkpt lat="46.52851" lon="5.80053">
        <ele>784.190415</ele>
        <time>2022-03-14T17:16:54.394Z</time>
      </trkpt>
      <trkpt lat="46.52799" lon="5.80003">
        <ele>785.152589</ele>
        <time>2022-03-14T17:17:10.801Z</time>
      </trkpt>
      <trkpt lat="46.52793" lon="5.79982">
        <ele>785.410697</ele>
        <time>2022-03-14T17:17:14.803Z</time>
      </trkpt>
      <trkpt lat="46.52801" lon="5.79934">
        <ele>785.965589</ele>
        <time>2022-03-14T17:17:24.533Z</time>
      </trkpt>
      <trkpt lat="46.528" lon="5.79901">
        <ele>786.336954</ele>
        <time>2022-03-14T17:17:31.407Z</time>
      </trkpt>
      <trkpt lat="46.52757" lon="5.79851">
        <ele>786.910161</ele>
        <time>2022-03-14T17:17:42.971Z</time>
      </trkpt>
      <trkpt lat="46.5275" lon="5.79842">
        <ele>786.61839</ele>
        <time>2022-03-14T17:17:45.186Z</time>
      </trkpt>
      <trkpt lat="46.52744" lon="5.79834">
        <ele>786.365674</ele>
        <time>2022-03-14T17:17:47.600Z</time>
      </trkpt>
      <trkpt lat="46.52675" lon="5.79792">
        <ele>784.014927</ele>
        <time>2022-03-14T17:17:58.497Z</time>
      </trkpt>
      <trkpt lat="46.52655" lon="5.79761">
        <ele>783.076639</ele>
        <time>2022-03-14T17:18:02.362Z</time>
      </trkpt>
      <trkpt lat="46.52646" lon="5.79746">
        <ele>782.656096</ele>
        <time>2022-03-14T17:18:04.325Z</time>
      </trkpt>
      <trkpt lat="46.52655" lon="5.79743">
        <ele>782.366969</ele>
        <time>2022-03-14T17:18:05.330Z</time>
      </trkpt>
      <trkpt lat="46.52675" lon="5.79722">
        <ele>781.603207</ele>
        <time>2022-03-14T17:18:08.431Z</time>
      </trkpt>
      <trkpt lat="46.52685" lon="5.79702">
        <ele>780.583522</ele>
        <time>2022-03-14T17:18:10.385Z</time>
      </trkpt>
      <trkpt lat="46.52717" lon="5.796">
        <ele>775.205339</ele>
        <time>2022-03-14T17:18:19.529Z</time>
      </trkpt>
      <trkpt lat="46.52721" lon="5.79565">
        <ele>773.515203</ele>
        <time>2022-03-14T17:18:22.333Z</time>
      </trkpt>
      <trkpt lat="46.52717" lon="5.79546">
        <ele>772.605311</ele>
        <time>2022-03-14T17:18:23.980Z</time>
      </trkpt>
      <trkpt lat="46.52714" lon="5.79534">
        <ele>771.943</ele>
        <time>2022-03-14T17:18:25.095Z</time>
      </trkpt>
      <trkpt lat="46.52717" lon="5.7953">
        <ele>771.622666</ele>
        <time>2022-03-14T17:18:25.679Z</time>
      </trkpt>
      <trkpt lat="46.52739" lon="5.79482">
        <ele>768.940837</ele>
        <time>2022-03-14T17:18:30.671Z</time>
      </trkpt>
      <trkpt lat="46.52739" lon="5.79479">
        <ele>768.848104</ele>
        <time>2022-03-14T17:18:30.961Z</time>
      </trkpt>
      <trkpt lat="46.52739" lon="5.79474">
        <ele>768.731853</ele>
        <time>2022-03-14T17:18:31.350Z</time>
      </trkpt>
      <trkpt lat="46.52738" lon="5.7947">
        <ele>768.612198</ele>
        <time>2022-03-14T17:18:31.745Z</time>
      </trkpt>
      <trkpt lat="46.52736" lon="5.79466">
        <ele>768.48199</ele>
        <time>2022-03-14T17:18:32.183Z</time>
      </trkpt>
      <trkpt lat="46.5273" lon="5.79461">
        <ele>768.224816</ele>
        <time>2022-03-14T17:18:33.050Z</time>
      </trkpt>
      <trkpt lat="46.52726" lon="5.79459">
        <ele>768.060366</ele>
        <time>2022-03-14T17:18:33.536Z</time>
      </trkpt>
      <trkpt lat="46.52721" lon="5.79459">
        <ele>767.872949</ele>
        <time>2022-03-14T17:18:34.126Z</time>
      </trkpt>
      <trkpt lat="46.52697" lon="5.79454">
        <ele>766.919576</ele>
        <time>2022-03-14T17:18:37.395Z</time>
      </trkpt>
      <trkpt lat="46.52683" lon="5.79434">
        <ele>766.174851</ele>
        <time>2022-03-14T17:18:39.868Z</time>
      </trkpt>
      <trkpt lat="46.52677" lon="5.79378">
        <ele>764.697977</ele>
        <time>2022-03-14T17:18:45.078Z</time>
      </trkpt>
      <trkpt lat="46.52685" lon="5.79338">
        <ele>763.591179</ele>
        <time>2022-03-14T17:18:49.700Z</time>
      </trkpt>
      <trkpt lat="46.52694" lon="5.79303">
        <ele>762.612831</ele>
        <time>2022-03-14T17:18:53.310Z</time>
      </trkpt>
      <trkpt lat="46.52698" lon="5.79295">
        <ele>762.357236</ele>
        <time>2022-03-14T17:18:54.658Z</time>
      </trkpt>
      <trkpt lat="46.52709" lon="5.79271">
        <ele>761.597074</ele>
        <time>2022-03-14T17:18:57.245Z</time>
      </trkpt>
      <trkpt lat="46.52711" lon="5.79265">
        <ele>761.400431</ele>
        <time>2022-03-14T17:18:58.008Z</time>
      </trkpt>
      <trkpt lat="46.52718" lon="5.79245">
        <ele>760.811837</ele>
        <time>2022-03-14T17:19:00.089Z</time>
      </trkpt>
      <trkpt lat="46.5272" lon="5.79237">
        <ele>760.580647</ele>
        <time>2022-03-14T17:19:00.941Z</time>
      </trkpt>
      <trkpt lat="46.52723" lon="5.79223">
        <ele>760.206698</ele>
        <time>2022-03-14T17:19:02.092Z</time>
      </trkpt>
      <trkpt lat="46.52737" lon="5.79164">
        <ele>758.527564</ele>
        <time>2022-03-14T17:19:07.684Z</time>
      </trkpt>
      <trkpt lat="46.52747" lon="5.79144">
        <ele>757.869375</ele>
        <time>2022-03-14T17:19:09.897Z</time>
      </trkpt>
      <trkpt lat="46.52753" lon="5.79136">
        <ele>757.547979</ele>
        <time>2022-03-14T17:19:10.916Z</time>
      </trkpt>
      <trkpt lat="46.52758" lon="5.79131">
        <ele>757.320185</ele>
        <time>2022-03-14T17:19:11.617Z</time>
      </trkpt>
      <trkpt lat="46.52778" lon="5.79122">
        <ele>756.511554</ele>
        <time>2022-03-14T17:19:14.401Z</time>
      </trkpt>
      <trkpt lat="46.52784" lon="5.79121">
        <ele>756.262303</ele>
        <time>2022-03-14T17:19:15.251Z</time>
      </trkpt>
      <trkpt lat="46.52792" lon="5.79121">
        <ele>755.959279</ele>
        <time>2022-03-14T17:19:16.221Z</time>
      </trkpt>
      <trkpt lat="46.52801" lon="5.79122">
        <ele>755.612158</ele>
        <time>2022-03-14T17:19:17.584Z</time>
      </trkpt>
      <trkpt lat="46.52809" lon="5.79125">
        <ele>755.292625</ele>
        <time>2022-03-14T17:19:18.665Z</time>
      </trkpt>
      <trkpt lat="46.5282" lon="5.79129">
        <ele>754.912714</ele>
        <time>2022-03-14T17:19:20.335Z</time>
      </trkpt>
      <trkpt lat="46.52827" lon="5.7913">
        <ele>754.703263</ele>
        <time>2022-03-14T17:19:21.188Z</time>
      </trkpt>
      <trkpt lat="46.52832" lon="5.79131">
        <ele>754.539362</ele>
        <time>2022-03-14T17:19:21.889Z</time>
      </trkpt>
      <trkpt lat="46.52839" lon="5.79132">
        <ele>754.326572</ele>
        <time>2022-03-14T17:19:22.874Z</time>
      </trkpt>
      <trkpt lat="46.52845" lon="5.79133">
        <ele>754.12365</ele>
        <time>2022-03-14T17:19:23.708Z</time>
      </trkpt>
      <trkpt lat="46.52875" lon="5.79127">
        <ele>753.192053</ele>
        <time>2022-03-14T17:19:27.753Z</time>
      </trkpt>
      <trkpt lat="46.52909" lon="5.7911">
        <ele>752.077175</ele>
        <time>2022-03-14T17:19:32.518Z</time>
      </trkpt>
      <trkpt lat="46.52966" lon="5.79053">
        <ele>749.915102</ele>
        <time>2022-03-14T17:19:42.206Z</time>
      </trkpt>
      <trkpt lat="46.52986" lon="5.79049">
        <ele>749.319208</ele>
        <time>2022-03-14T17:19:45.131Z</time>
      </trkpt>
      <trkpt lat="46.53013" lon="5.79053">
        <ele>748.611774</ele>
        <time>2022-03-14T17:19:49.230Z</time>
      </trkpt>
      <trkpt lat="46.53085" lon="5.79072">
        <ele>746.682</ele>
        <time>2022-03-14T17:20:00.080Z</time>
      </trkpt>
      <trkpt lat="46.53203" lon="5.79132">
        <ele>742.436255</ele>
        <time>2022-03-14T17:20:16.910Z</time>
      </trkpt>
      <trkpt lat="46.53235" lon="5.79155">
        <ele>740.81491</ele>
        <time>2022-03-14T17:20:21.479Z</time>
      </trkpt>
      <trkpt lat="46.53284" lon="5.79206">
        <ele>738.116795</ele>
        <time>2022-03-14T17:20:29.033Z</time>
      </trkpt>
      <trkpt lat="46.5333" lon="5.79236">
        <ele>736.218213</ele>
        <time>2022-03-14T17:20:35.442Z</time>
      </trkpt>
      <trkpt lat="46.53346" lon="5.79248">
        <ele>735.718659</ele>
        <time>2022-03-14T17:20:37.835Z</time>
      </trkpt>
      <trkpt lat="46.53356" lon="5.79257">
        <ele>735.41335</ele>
        <time>2022-03-14T17:20:39.311Z</time>
      </trkpt>
      <trkpt lat="46.53384" lon="5.79295">
        <ele>734.378735</ele>
        <time>2022-03-14T17:20:44.577Z</time>
      </trkpt>
      <trkpt lat="46.53398" lon="5.79322">
        <ele>733.757613</ele>
        <time>2022-03-14T17:20:47.848Z</time>
      </trkpt>
      <trkpt lat="46.53406" lon="5.79334">
        <ele>733.442551</ele>
        <time>2022-03-14T17:20:49.556Z</time>
      </trkpt>
      <trkpt lat="46.53446" lon="5.79372">
        <ele>732.153353</ele>
        <time>2022-03-14T17:20:57.019Z</time>
      </trkpt>
      <trkpt lat="46.53522" lon="5.79404">
        <ele>732.257468</ele>
        <time>2022-03-14T17:21:11.483Z</time>
      </trkpt>
      <trkpt lat="46.53577" lon="5.79414">
        <ele>732.525874</ele>
        <time>2022-03-14T17:21:24.864Z</time>
      </trkpt>
      <trkpt lat="46.53715" lon="5.79408">
        <ele>732.331831</ele>
        <time>2022-03-14T17:21:51.845Z</time>
      </trkpt>
      <trkpt lat="46.53832" lon="5.7945">
        <ele>731.755539</ele>
        <time>2022-03-14T17:22:10.179Z</time>
      </trkpt>
      <trkpt lat="46.53907" lon="5.79467">
        <ele>731.616042</ele>
        <time>2022-03-14T17:22:22.033Z</time>
      </trkpt>
      <trkpt lat="46.53945" lon="5.79484">
        <ele>731.541731</ele>
        <time>2022-03-14T17:22:29.003Z</time>
      </trkpt>
      <trkpt lat="46.5402" lon="5.7954">
        <ele>732.955184</ele>
        <time>2022-03-14T17:22:50.112Z</time>
      </trkpt>
      <trkpt lat="46.54048" lon="5.79551">
        <ele>733.943096</ele>
        <time>2022-03-14T17:22:59.670Z</time>
      </trkpt>
      <trkpt lat="46.54094" lon="5.79551">
        <ele>735.507268</ele>
        <time>2022-03-14T17:23:16.598Z</time>
      </trkpt>
      <trkpt lat="46.5414" lon="5.79525">
        <ele>737.163706</ele>
        <time>2022-03-14T17:23:32.718Z</time>
      </trkpt>
      <trkpt lat="46.54156" lon="5.79512">
        <ele>737.631682</ele>
        <time>2022-03-14T17:23:39.751Z</time>
      </trkpt>
      <trkpt lat="46.5416" lon="5.79509">
        <ele>737.682254</ele>
        <time>2022-03-14T17:23:41.736Z</time>
      </trkpt>
      <trkpt lat="46.54186" lon="5.79484">
        <ele>738.017333</ele>
        <time>2022-03-14T17:23:51.576Z</time>
      </trkpt>
      <trkpt lat="46.54239" lon="5.79416">
        <ele>738.781757</ele>
        <time>2022-03-14T17:24:09.342Z</time>
      </trkpt>
      <trkpt lat="46.54263" lon="5.79411">
        <ele>739.042328</ele>
        <time>2022-03-14T17:24:15.229Z</time>
      </trkpt>
      <trkpt lat="46.54336" lon="5.79418">
        <ele>737.989246</ele>
        <time>2022-03-14T17:24:25.557Z</time>
      </trkpt>
      <trkpt lat="46.54339" lon="5.79418">
        <ele>737.851171</ele>
        <time>2022-03-14T17:24:25.897Z</time>
      </trkpt>
      <trkpt lat="46.54345" lon="5.79418">
        <ele>737.560138</ele>
        <time>2022-03-14T17:24:26.596Z</time>
      </trkpt>
      <trkpt lat="46.54376" lon="5.7941">
        <ele>736.000752</ele>
        <time>2022-03-14T17:24:30.696Z</time>
      </trkpt>
      <trkpt lat="46.54423" lon="5.79379">
        <ele>733.45268</ele>
        <time>2022-03-14T17:24:37.178Z</time>
      </trkpt>
      <trkpt lat="46.5444" lon="5.79365">
        <ele>732.460606</ele>
        <time>2022-03-14T17:24:39.624Z</time>
      </trkpt>
      <trkpt lat="46.54466" lon="5.79336">
        <ele>730.870883</ele>
        <time>2022-03-14T17:24:43.553Z</time>
      </trkpt>
      <trkpt lat="46.54488" lon="5.79315">
        <ele>729.322384</ele>
        <time>2022-03-14T17:24:46.693Z</time>
      </trkpt>
      <trkpt lat="46.54522" lon="5.79266">
        <ele>726.400258</ele>
        <time>2022-03-14T17:24:52.532Z</time>
      </trkpt>
      <trkpt lat="46.54602" lon="5.79243">
        <ele>721.438195</ele>
        <time>2022-03-14T17:25:02.534Z</time>
      </trkpt>
      <trkpt lat="46.54701" lon="5.79152">
        <ele>715.514783</ele>
        <time>2022-03-14T17:25:17.304Z</time>
      </trkpt>
      <trkpt lat="46.5476" lon="5.79125">
        <ele>712.604178</ele>
        <time>2022-03-14T17:25:25.366Z</time>
      </trkpt>
      <trkpt lat="46.54765" lon="5.79119">
        <ele>712.308855</ele>
        <time>2022-03-14T17:25:26.125Z</time>
      </trkpt>
      <trkpt lat="46.54768" lon="5.79113">
        <ele>712.053362</ele>
        <time>2022-03-14T17:25:26.787Z</time>
      </trkpt>
      <trkpt lat="46.54775" lon="5.7909">
        <ele>711.246379</ele>
        <time>2022-03-14T17:25:29.022Z</time>
      </trkpt>
      <trkpt lat="46.54775" lon="5.79083">
        <ele>711.077056</ele>
        <time>2022-03-14T17:25:29.795Z</time>
      </trkpt>
      <trkpt lat="46.54776" lon="5.79075">
        <ele>710.932788</ele>
        <time>2022-03-14T17:25:30.531Z</time>
      </trkpt>
      <trkpt lat="46.54776" lon="5.79061">
        <ele>710.6951</ele>
        <time>2022-03-14T17:25:31.656Z</time>
      </trkpt>
      <trkpt lat="46.54747" lon="5.78906">
        <ele>707.794615</ele>
        <time>2022-03-14T17:25:47.015Z</time>
      </trkpt>
      <trkpt lat="46.54744" lon="5.78888">
        <ele>707.465817</ele>
        <time>2022-03-14T17:25:48.816Z</time>
      </trkpt>
      <trkpt lat="46.54742" lon="5.78876">
        <ele>707.236867</ele>
        <time>2022-03-14T17:25:50.385Z</time>
      </trkpt>
      <trkpt lat="46.54741" lon="5.78789">
        <ele>706.547476</ele>
        <time>2022-03-14T17:25:59.804Z</time>
      </trkpt>
      <trkpt lat="46.54749" lon="5.78758">
        <ele>706.603429</ele>
        <time>2022-03-14T17:26:04.139Z</time>
      </trkpt>
      <trkpt lat="46.54762" lon="5.78738">
        <ele>706.651355</ele>
        <time>2022-03-14T17:26:07.316Z</time>
      </trkpt>
      <trkpt lat="46.54815" lon="5.78704">
        <ele>706.794703</ele>
        <time>2022-03-14T17:26:19.372Z</time>
      </trkpt>
      <trkpt lat="46.54869" lon="5.78694">
        <ele>706.950943</ele>
        <time>2022-03-14T17:26:31.654Z</time>
      </trkpt>
      <trkpt lat="46.54953" lon="5.78667">
        <ele>707.581868</ele>
        <time>2022-03-14T17:26:50.747Z</time>
      </trkpt>
      <trkpt lat="46.5497" lon="5.78656">
        <ele>707.712539</ele>
        <time>2022-03-14T17:26:54.549Z</time>
      </trkpt>
      <trkpt lat="46.54986" lon="5.78631">
        <ele>707.885459</ele>
        <time>2022-03-14T17:26:59.495Z</time>
      </trkpt>
      <trkpt lat="46.54999" lon="5.78578">
        <ele>708.1678</ele>
        <time>2022-03-14T17:27:07.226Z</time>
      </trkpt>
      <trkpt lat="46.55003" lon="5.78447">
        <ele>707.201689</ele>
        <time>2022-03-14T17:27:22.661Z</time>
      </trkpt>
      <trkpt lat="46.55033" lon="5.78335">
        <ele>706.161394</ele>
        <time>2022-03-14T17:27:34.791Z</time>
      </trkpt>
      <trkpt lat="46.5504" lon="5.78277">
        <ele>705.099954</ele>
        <time>2022-03-14T17:27:40.595Z</time>
      </trkpt>
      <trkpt lat="46.55041" lon="5.78252">
        <ele>704.512073</ele>
        <time>2022-03-14T17:27:42.985Z</time>
      </trkpt>
      <trkpt lat="46.55043" lon="5.78234">
        <ele>704.082653</ele>
        <time>2022-03-14T17:27:44.676Z</time>
      </trkpt>
      <trkpt lat="46.55057" lon="5.78183">
        <ele>702.815898</ele>
        <time>2022-03-14T17:27:49.714Z</time>
      </trkpt>
      <trkpt lat="46.55117" lon="5.78075">
        <ele>699.495405</ele>
        <time>2022-03-14T17:28:02.452Z</time>
      </trkpt>
      <trkpt lat="46.55169" lon="5.77904">
        <ele>694.664946</ele>
        <time>2022-03-14T17:28:19.652Z</time>
      </trkpt>
      <trkpt lat="46.5522" lon="5.77821">
        <ele>691.675335</ele>
        <time>2022-03-14T17:28:29.772Z</time>
      </trkpt>
      <trkpt lat="46.55241" lon="5.778">
        <ele>690.650076</ele>
        <time>2022-03-14T17:28:33.081Z</time>
      </trkpt>
      <trkpt lat="46.55291" lon="5.77778">
        <ele>688.507843</ele>
        <time>2022-03-14T17:28:40.021Z</time>
      </trkpt>
      <trkpt lat="46.55341" lon="5.77746">
        <ele>686.264412</ele>
        <time>2022-03-14T17:28:47.019Z</time>
      </trkpt>
      <trkpt lat="46.55394" lon="5.77701">
        <ele>683.787298</ele>
        <time>2022-03-14T17:28:55.083Z</time>
      </trkpt>
      <trkpt lat="46.55428" lon="5.77687">
        <ele>682.354693</ele>
        <time>2022-03-14T17:28:59.759Z</time>
      </trkpt>
      <trkpt lat="46.55435" lon="5.77685">
        <ele>682.043071</ele>
        <time>2022-03-14T17:29:00.681Z</time>
      </trkpt>
      <trkpt lat="46.55447" lon="5.77684">
        <ele>681.565715</ele>
        <time>2022-03-14T17:29:03.656Z</time>
      </trkpt>
      <trkpt lat="46.5552" lon="5.77694">
        <ele>678.596191</ele>
        <time>2022-03-14T17:29:21.365Z</time>
      </trkpt>
      <trkpt lat="46.55548" lon="5.77682">
        <ele>677.426788</ele>
        <time>2022-03-14T17:29:28.245Z</time>
      </trkpt>
      <trkpt lat="46.55566" lon="5.77638">
        <ele>676.029498</ele>
        <time>2022-03-14T17:29:36.439Z</time>
      </trkpt>
      <trkpt lat="46.55571" lon="5.77569">
        <ele>674.085027</ele>
        <time>2022-03-14T17:29:48.103Z</time>
      </trkpt>
      <trkpt lat="46.55578" lon="5.77546">
        <ele>673.375841</ele>
        <time>2022-03-14T17:29:52.304Z</time>
      </trkpt>
      <trkpt lat="46.55613" lon="5.77515">
        <ele>671.723808</ele>
        <time>2022-03-14T17:30:01.960Z</time>
      </trkpt>
      <trkpt lat="46.55644" lon="5.77454">
        <ele>669.12106</ele>
        <time>2022-03-14T17:30:14.043Z</time>
      </trkpt>
      <trkpt lat="46.55674" lon="5.77414">
        <ele>666.957348</ele>
        <time>2022-03-14T17:30:23.300Z</time>
      </trkpt>
      <trkpt lat="46.55705" lon="5.77355">
        <ele>664.224683</ele>
        <time>2022-03-14T17:30:34.871Z</time>
      </trkpt>
      <trkpt lat="46.55753" lon="5.77311">
        <ele>661.244116</ele>
        <time>2022-03-14T17:30:47.560Z</time>
      </trkpt>
      <trkpt lat="46.55768" lon="5.77291">
        <ele>660.421102</ele>
        <time>2022-03-14T17:30:52.084Z</time>
      </trkpt>
      <trkpt lat="46.5578" lon="5.7726">
        <ele>659.4349</ele>
        <time>2022-03-14T17:30:57.763Z</time>
      </trkpt>
      <trkpt lat="46.55791" lon="5.77199">
        <ele>657.678092</ele>
        <time>2022-03-14T17:31:07.907Z</time>
      </trkpt>
      <trkpt lat="46.55794" lon="5.7719">
        <ele>657.400679</ele>
        <time>2022-03-14T17:31:09.339Z</time>
      </trkpt>
      <trkpt lat="46.55798" lon="5.7718">
        <ele>657.057115</ele>
        <time>2022-03-14T17:31:11.471Z</time>
      </trkpt>
      <trkpt lat="46.55823" lon="5.77145">
        <ele>655.630861</ele>
        <time>2022-03-14T17:31:19.983Z</time>
      </trkpt>
      <trkpt lat="46.55864" lon="5.77125">
        <ele>654.112537</ele>
        <time>2022-03-14T17:31:30.865Z</time>
      </trkpt>
      <trkpt lat="46.55898" lon="5.77093">
        <ele>653.706964</ele>
        <time>2022-03-14T17:31:41.638Z</time>
      </trkpt>
      <trkpt lat="46.55993" lon="5.76948">
        <ele>652.274125</ele>
        <time>2022-03-14T17:32:21.279Z</time>
      </trkpt>
      <trkpt lat="46.56025" lon="5.76919">
        <ele>651.592036</ele>
        <time>2022-03-14T17:32:31.797Z</time>
      </trkpt>
      <trkpt lat="46.56079" lon="5.76893">
        <ele>650.547795</ele>
        <time>2022-03-14T17:32:46.708Z</time>
      </trkpt>
      <trkpt lat="46.56113" lon="5.76885">
        <ele>649.922867</ele>
        <time>2022-03-14T17:32:55.872Z</time>
      </trkpt>
      <trkpt lat="46.5614" lon="5.76886">
        <ele>649.424664</ele>
        <time>2022-03-14T17:33:03.131Z</time>
      </trkpt>
      <trkpt lat="46.56172" lon="5.76908">
        <ele>648.210582</ele>
        <time>2022-03-14T17:33:11.643Z</time>
      </trkpt>
      <trkpt lat="46.5618" lon="5.76912">
        <ele>647.763489</ele>
        <time>2022-03-14T17:33:13.557Z</time>
      </trkpt>
      <trkpt lat="46.56186" lon="5.76914">
        <ele>647.413367</ele>
        <time>2022-03-14T17:33:15.240Z</time>
      </trkpt>
      <trkpt lat="46.56189" lon="5.76915">
        <ele>647.257116</ele>
        <time>2022-03-14T17:33:16.004Z</time>
      </trkpt>
      <trkpt lat="46.56192" lon="5.76917">
        <ele>647.08992</ele>
        <time>2022-03-14T17:33:16.883Z</time>
      </trkpt>
      <trkpt lat="46.5621" lon="5.76938">
        <ele>645.915887</ele>
        <time>2022-03-14T17:33:22.037Z</time>
      </trkpt>
      <trkpt lat="46.56227" lon="5.76973">
        <ele>644.365537</ele>
        <time>2022-03-14T17:33:29.048Z</time>
      </trkpt>
      <trkpt lat="46.5624" lon="5.76989">
        <ele>643.488584</ele>
        <time>2022-03-14T17:33:32.925Z</time>
      </trkpt>
      <trkpt lat="46.56271" lon="5.7694">
        <ele>641.108043</ele>
        <time>2022-03-14T17:33:38.614Z</time>
      </trkpt>
      <trkpt lat="46.56373" lon="5.76784">
        <ele>630.93628</ele>
        <time>2022-03-14T17:33:56.154Z</time>
      </trkpt>
      <trkpt lat="46.56406" lon="5.76732">
        <ele>627.424487</ele>
        <time>2022-03-14T17:34:01.952Z</time>
      </trkpt>
      <trkpt lat="46.5641" lon="5.76726">
        <ele>627.014711</ele>
        <time>2022-03-14T17:34:02.591Z</time>
      </trkpt>
      <trkpt lat="46.56438" lon="5.76681">
        <ele>624.289495</ele>
        <time>2022-03-14T17:34:07.697Z</time>
      </trkpt>
      <trkpt lat="46.56468" lon="5.76636">
        <ele>621.526693</ele>
        <time>2022-03-14T17:34:12.931Z</time>
      </trkpt>
      <trkpt lat="46.56491" lon="5.76601">
        <ele>619.419648</ele>
        <time>2022-03-14T17:34:16.916Z</time>
      </trkpt>
      <trkpt lat="46.56516" lon="5.76565">
        <ele>617.161799</ele>
        <time>2022-03-14T17:34:21.278Z</time>
      </trkpt>
      <trkpt lat="46.56521" lon="5.76558">
        <ele>616.679851</ele>
        <time>2022-03-14T17:34:22.187Z</time>
      </trkpt>
      <trkpt lat="46.56532" lon="5.76543">
        <ele>615.748163</ele>
        <time>2022-03-14T17:34:23.950Z</time>
      </trkpt>
      <trkpt lat="46.56547" lon="5.76518">
        <ele>614.249149</ele>
        <time>2022-03-14T17:34:26.868Z</time>
      </trkpt>
      <trkpt lat="46.56581" lon="5.76464">
        <ele>611.042336</ele>
        <time>2022-03-14T17:34:32.938Z</time>
      </trkpt>
      <trkpt lat="46.56611" lon="5.76415">
        <ele>608.094406</ele>
        <time>2022-03-14T17:34:38.552Z</time>
      </trkpt>
      <trkpt lat="46.56622" lon="5.76399">
        <ele>607.083059</ele>
        <time>2022-03-14T17:34:40.423Z</time>
      </trkpt>
      <trkpt lat="46.56627" lon="5.76395">
        <ele>606.694396</ele>
        <time>2022-03-14T17:34:41.131Z</time>
      </trkpt>
      <trkpt lat="46.56668" lon="5.76341">
        <ele>603.130666</ele>
        <time>2022-03-14T17:34:47.837Z</time>
      </trkpt>
      <trkpt lat="46.56678" lon="5.76326">
        <ele>602.121564</ele>
        <time>2022-03-14T17:34:49.480Z</time>
      </trkpt>
      <trkpt lat="46.56704" lon="5.76292">
        <ele>599.681874</ele>
        <time>2022-03-14T17:34:53.647Z</time>
      </trkpt>
      <trkpt lat="46.56769" lon="5.76224">
        <ele>594.186459</ele>
        <time>2022-03-14T17:35:03.193Z</time>
      </trkpt>
      <trkpt lat="46.56781" lon="5.76212">
        <ele>593.154216</ele>
        <time>2022-03-14T17:35:05.019Z</time>
      </trkpt>
      <trkpt lat="46.56791" lon="5.76202">
        <ele>592.315497</ele>
        <time>2022-03-14T17:35:06.420Z</time>
      </trkpt>
      <trkpt lat="46.56815" lon="5.76164">
        <ele>590.163597</ele>
        <time>2022-03-14T17:35:10.761Z</time>
      </trkpt>
      <trkpt lat="46.56831" lon="5.76124">
        <ele>588.517007</ele>
        <time>2022-03-14T17:35:14.762Z</time>
      </trkpt>
      <trkpt lat="46.56876" lon="5.75997">
        <ele>583.454556</ele>
        <time>2022-03-14T17:35:27.117Z</time>
      </trkpt>
      <trkpt lat="46.56899" lon="5.75895">
        <ele>579.976474</ele>
        <time>2022-03-14T17:35:37.097Z</time>
      </trkpt>
      <trkpt lat="46.569" lon="5.75886">
        <ele>579.69416</ele>
        <time>2022-03-14T17:35:37.944Z</time>
      </trkpt>
      <trkpt lat="46.56902" lon="5.75878">
        <ele>579.446043</ele>
        <time>2022-03-14T17:35:38.681Z</time>
      </trkpt>
      <trkpt lat="46.56917" lon="5.75807">
        <ele>577.22402</ele>
        <time>2022-03-14T17:35:45.426Z</time>
      </trkpt>
      <trkpt lat="46.56931" lon="5.75776">
        <ele>576.101902</ele>
        <time>2022-03-14T17:35:48.762Z</time>
      </trkpt>
      <trkpt lat="46.56937" lon="5.7577">
        <ele>575.781866</ele>
        <time>2022-03-14T17:35:49.699Z</time>
      </trkpt>
      <trkpt lat="46.56963" lon="5.75739">
        <ele>574.323957</ele>
        <time>2022-03-14T17:35:53.915Z</time>
      </trkpt>
      <trkpt lat="46.56973" lon="5.75727">
        <ele>573.654164</ele>
        <time>2022-03-14T17:35:55.542Z</time>
      </trkpt>
      <trkpt lat="46.57007" lon="5.75686">
        <ele>570.690866</ele>
        <time>2022-03-14T17:36:01.074Z</time>
      </trkpt>
      <trkpt lat="46.57017" lon="5.75675">
        <ele>569.894228</ele>
        <time>2022-03-14T17:36:02.572Z</time>
      </trkpt>
      <trkpt lat="46.57024" lon="5.75666">
        <ele>569.275013</ele>
        <time>2022-03-14T17:36:03.710Z</time>
      </trkpt>
      <trkpt lat="46.57051" lon="5.75634">
        <ele>566.979588</ele>
        <time>2022-03-14T17:36:07.908Z</time>
      </trkpt>
      <trkpt lat="46.57104" lon="5.75571">
        <ele>562.407643</ele>
        <time>2022-03-14T17:36:16.083Z</time>
      </trkpt>
      <trkpt lat="46.57147" lon="5.75519">
        <ele>558.77254</ele>
        <time>2022-03-14T17:36:22.642Z</time>
      </trkpt>
      <trkpt lat="46.57181" lon="5.7548">
        <ele>555.939058</ele>
        <time>2022-03-14T17:36:27.807Z</time>
      </trkpt>
      <trkpt lat="46.57195" lon="5.75466">
        <ele>554.840892</ele>
        <time>2022-03-14T17:36:29.836Z</time>
      </trkpt>
      <trkpt lat="46.57198" lon="5.75461">
        <ele>554.527856</ele>
        <time>2022-03-14T17:36:30.434Z</time>
      </trkpt>
      <trkpt lat="46.572" lon="5.75457">
        <ele>554.309123</ele>
        <time>2022-03-14T17:36:30.813Z</time>
      </trkpt>
      <trkpt lat="46.57201" lon="5.75431">
        <ele>553.138928</ele>
        <time>2022-03-14T17:36:33.043Z</time>
      </trkpt>
      <trkpt lat="46.572" lon="5.75426">
        <ele>552.919559</ele>
        <time>2022-03-14T17:36:33.431Z</time>
      </trkpt>
      <trkpt lat="46.57222" lon="5.7542">
        <ele>551.464075</ele>
        <time>2022-03-14T17:36:36.240Z</time>
      </trkpt>
      <trkpt lat="46.57232" lon="5.75413">
        <ele>550.743526</ele>
        <time>2022-03-14T17:36:37.678Z</time>
      </trkpt>
      <trkpt lat="46.5724" lon="5.75407">
        <ele>550.219487</ele>
        <time>2022-03-14T17:36:38.859Z</time>
      </trkpt>
      <trkpt lat="46.57246" lon="5.75402">
        <ele>550.009009</ele>
        <time>2022-03-14T17:36:39.716Z</time>
      </trkpt>
      <trkpt lat="46.57251" lon="5.75397">
        <ele>549.801269</ele>
        <time>2022-03-14T17:36:40.531Z</time>
      </trkpt>
      <trkpt lat="46.57275" lon="5.75369">
        <ele>548.828138</ele>
        <time>2022-03-14T17:36:44.504Z</time>
      </trkpt>
      <trkpt lat="46.5729" lon="5.7535">
        <ele>548.184855</ele>
        <time>2022-03-14T17:36:47.273Z</time>
      </trkpt>
      <trkpt lat="46.57294" lon="5.75346">
        <ele>548.046229</ele>
        <time>2022-03-14T17:36:47.847Z</time>
      </trkpt>
      <trkpt lat="46.57313" lon="5.75324">
        <ele>547.262726</ele>
        <time>2022-03-14T17:36:51.279Z</time>
      </trkpt>
      <trkpt lat="46.57321" lon="5.75315">
        <ele>546.945747</ele>
        <time>2022-03-14T17:36:52.654Z</time>
      </trkpt>
      <trkpt lat="46.57376" lon="5.75252">
        <ele>544.727149</ele>
        <time>2022-03-14T17:37:03.080Z</time>
      </trkpt>
      <trkpt lat="46.5738" lon="5.75247">
        <ele>544.569288</ele>
        <time>2022-03-14T17:37:03.790Z</time>
      </trkpt>
      <trkpt lat="46.57513" lon="5.75083">
        <ele>539.897781</ele>
        <time>2022-03-14T17:37:28.605Z</time>
      </trkpt>
      <trkpt lat="46.57521" lon="5.75074">
        <ele>539.580245</ele>
        <time>2022-03-14T17:37:29.882Z</time>
      </trkpt>
      <trkpt lat="46.57519" lon="5.7507">
        <ele>539.457553</ele>
        <time>2022-03-14T17:37:30.266Z</time>
      </trkpt>
      <trkpt lat="46.57507" lon="5.75058">
        <ele>538.925043</ele>
        <time>2022-03-14T17:37:32.244Z</time>
      </trkpt>
      <trkpt lat="46.57491" lon="5.75048">
        <ele>538.260888</ele>
        <time>2022-03-14T17:37:34.568Z</time>
      </trkpt>
      <trkpt lat="46.57482" lon="5.75037">
        <ele>537.843637</ele>
        <time>2022-03-14T17:37:35.959Z</time>
      </trkpt>
      <trkpt lat="46.57426" lon="5.74956">
        <ele>534.896066</ele>
        <time>2022-03-14T17:37:46.332Z</time>
      </trkpt>
      <trkpt lat="46.57418" lon="5.74941">
        <ele>534.427773</ele>
        <time>2022-03-14T17:37:47.965Z</time>
      </trkpt>
      <trkpt lat="46.57416" lon="5.74936">
        <ele>534.280105</ele>
        <time>2022-03-14T17:37:48.498Z</time>
      </trkpt>
      <trkpt lat="46.57408" lon="5.74913">
        <ele>533.605079</ele>
        <time>2022-03-14T17:37:50.887Z</time>
      </trkpt>
      <trkpt lat="46.57406" lon="5.74893">
        <ele>533.086627</ele>
        <time>2022-03-14T17:37:52.750Z</time>
      </trkpt>
      <trkpt lat="46.57419" lon="5.7482">
        <ele>532.685438</ele>
        <time>2022-03-14T17:38:00.553Z</time>
      </trkpt>
      <trkpt lat="46.57423" lon="5.74816">
        <ele>532.649767</ele>
        <time>2022-03-14T17:38:01.268Z</time>
      </trkpt>
      <trkpt lat="46.57421" lon="5.74808">
        <ele>532.603428</ele>
        <time>2022-03-14T17:38:02.201Z</time>
      </trkpt>
      <trkpt lat="46.57417" lon="5.74793">
        <ele>532.517064</ele>
        <time>2022-03-14T17:38:03.888Z</time>
      </trkpt>
      <trkpt lat="46.57419" lon="5.74781">
        <ele>532.449564</ele>
        <time>2022-03-14T17:38:05.430Z</time>
      </trkpt>
      <trkpt lat="46.57422" lon="5.74767">
        <ele>532.371135</ele>
        <time>2022-03-14T17:38:07.234Z</time>
      </trkpt>
      <trkpt lat="46.57423" lon="5.74763">
        <ele>532.350705</ele>
        <time>2022-03-14T17:38:07.724Z</time>
      </trkpt>
      <trkpt lat="46.57426" lon="5.74755">
        <ele>532.302487</ele>
        <time>2022-03-14T17:38:08.635Z</time>
      </trkpt>
      <trkpt lat="46.57427" lon="5.74752">
        <ele>532.28305</ele>
        <time>2022-03-14T17:38:09.014Z</time>
      </trkpt>
      <trkpt lat="46.57433" lon="5.7475">
        <ele>532.235591</ele>
        <time>2022-03-14T17:38:10.042Z</time>
      </trkpt>
      <trkpt lat="46.57438" lon="5.74748">
        <ele>532.19731</ele>
        <time>2022-03-14T17:38:10.914Z</time>
      </trkpt>
      <trkpt lat="46.57469" lon="5.74744">
        <ele>531.956815</ele>
        <time>2022-03-14T17:38:17.353Z</time>
      </trkpt>
      <trkpt lat="46.57478" lon="5.74743">
        <ele>531.889618</ele>
        <time>2022-03-14T17:38:19.161Z</time>
      </trkpt>
      <trkpt lat="46.57485" lon="5.74742">
        <ele>531.83421</ele>
        <time>2022-03-14T17:38:20.626Z</time>
      </trkpt>
      <trkpt lat="46.57504" lon="5.74738">
        <ele>531.704489</ele>
        <time>2022-03-14T17:38:24.610Z</time>
      </trkpt>
      <trkpt lat="46.57637" lon="5.7471">
        <ele>532.494255</ele>
        <time>2022-03-14T17:38:53.614Z</time>
      </trkpt>
      <trkpt lat="46.57652" lon="5.74711">
        <ele>532.583087</ele>
        <time>2022-03-14T17:38:56.675Z</time>
      </trkpt>
      <trkpt lat="46.57673" lon="5.74713">
        <ele>532.707065</ele>
        <time>2022-03-14T17:39:00.281Z</time>
      </trkpt>
    </trkseg>
  </trk>
</gpx>